<?xml version="1.0" encoding="UTF-8" standalone="no" ?>
<gpx xmlns="http://www.topografix.com/GPX/1/1" xmlns:xsi="http://www.w3.org/2001/XMLSchema-instance" xsi:schemaLocation="http://www.topografix.com/GPX/1/1 http://www.topografix.com/GPX/1/1/gpx.xsd" version="1.1" creator="VisuGPX - https://www.visugpx.com">
  <metadata>
    <name>Reco TV 09 Jour 3</name>
    <desc><![CDATA[Une journée de pure bonheur]]></desc>
  </metadata>
  <trk>
    <name><![CDATA[ACTIVE LOG114740]]></name>
    <trkseg>
      <trkpt lat="43.99849" lon="7.23614">
        <ele>1678.848</ele>
        <time>2009-05-09T09:47:40Z</time>
      </trkpt>
      <trkpt lat="43.99852" lon="7.23606">
        <ele>1681.942</ele>
        <time>2009-05-09T09:47:52Z</time>
      </trkpt>
      <trkpt lat="43.99853" lon="7.23607">
        <ele>1685.23</ele>
        <time>2009-05-09T09:48:03Z</time>
      </trkpt>
      <trkpt lat="43.99852" lon="7.23608">
        <ele>1685.807</ele>
        <time>2009-05-09T09:48:39Z</time>
      </trkpt>
      <trkpt lat="43.99852" lon="7.23617">
        <ele>1685.016</ele>
        <time>2009-05-09T09:48:45Z</time>
      </trkpt>
      <trkpt lat="43.99852" lon="7.23615">
        <ele>1685.637</ele>
        <time>2009-05-09T09:48:49Z</time>
      </trkpt>
      <trkpt lat="43.9985" lon="7.2361">
        <ele>1685.975</ele>
        <time>2009-05-09T09:48:53Z</time>
      </trkpt>
      <trkpt lat="43.99855" lon="7.23599">
        <ele>1686.659</ele>
        <time>2009-05-09T09:48:59Z</time>
      </trkpt>
      <trkpt lat="43.99856" lon="7.23596">
        <ele>1685.974</ele>
        <time>2009-05-09T09:49:00Z</time>
      </trkpt>
      <trkpt lat="43.99849" lon="7.2359">
        <ele>1683.843</ele>
        <time>2009-05-09T09:49:06Z</time>
      </trkpt>
      <trkpt lat="43.99849" lon="7.23588">
        <ele>1683.409</ele>
        <time>2009-05-09T09:49:08Z</time>
      </trkpt>
      <trkpt lat="43.99847" lon="7.23569">
        <ele>1680.668</ele>
        <time>2009-05-09T09:49:15Z</time>
      </trkpt>
      <trkpt lat="43.99846" lon="7.23561">
        <ele>1679.028</ele>
        <time>2009-05-09T09:49:21Z</time>
      </trkpt>
      <trkpt lat="43.99845" lon="7.23561">
        <ele>1678.824</ele>
        <time>2009-05-09T09:49:23Z</time>
      </trkpt>
      <trkpt lat="43.99832" lon="7.23563">
        <ele>1678.419</ele>
        <time>2009-05-09T09:49:30Z</time>
      </trkpt>
      <trkpt lat="43.99828" lon="7.23562">
        <ele>1676.93</ele>
        <time>2009-05-09T09:49:32Z</time>
      </trkpt>
      <trkpt lat="43.99815" lon="7.23567">
        <ele>1675.553</ele>
        <time>2009-05-09T09:49:39Z</time>
      </trkpt>
      <trkpt lat="43.99813" lon="7.23567">
        <ele>1675.532</ele>
        <time>2009-05-09T09:49:48Z</time>
      </trkpt>
      <trkpt lat="43.99806" lon="7.23568">
        <ele>1676.068</ele>
        <time>2009-05-09T09:50:06Z</time>
      </trkpt>
      <trkpt lat="43.99799" lon="7.23574">
        <ele>1674.624</ele>
        <time>2009-05-09T09:50:10Z</time>
      </trkpt>
      <trkpt lat="43.99794" lon="7.23573">
        <ele>1674.374</ele>
        <time>2009-05-09T09:50:16Z</time>
      </trkpt>
      <trkpt lat="43.99798" lon="7.23559">
        <ele>1672.307</ele>
        <time>2009-05-09T09:50:22Z</time>
      </trkpt>
      <trkpt lat="43.99797" lon="7.23554">
        <ele>1670.244</ele>
        <time>2009-05-09T09:50:28Z</time>
      </trkpt>
      <trkpt lat="43.99796" lon="7.2355">
        <ele>1670.628</ele>
        <time>2009-05-09T09:50:44Z</time>
      </trkpt>
      <trkpt lat="43.99794" lon="7.23546">
        <ele>1669.333</ele>
        <time>2009-05-09T09:50:54Z</time>
      </trkpt>
      <trkpt lat="43.99792" lon="7.23546">
        <ele>1668.595</ele>
        <time>2009-05-09T09:51:05Z</time>
      </trkpt>
      <trkpt lat="43.99791" lon="7.23547">
        <ele>1668.768</ele>
        <time>2009-05-09T09:51:06Z</time>
      </trkpt>
      <trkpt lat="43.99776" lon="7.23549">
        <ele>1667.768</ele>
        <time>2009-05-09T09:51:12Z</time>
      </trkpt>
      <trkpt lat="43.99761" lon="7.23545">
        <ele>1664.933</ele>
        <time>2009-05-09T09:51:16Z</time>
      </trkpt>
      <trkpt lat="43.99758" lon="7.23545">
        <ele>1663.383</ele>
        <time>2009-05-09T09:51:21Z</time>
      </trkpt>
      <trkpt lat="43.99748" lon="7.23534">
        <ele>1662.924</ele>
        <time>2009-05-09T09:52:01Z</time>
      </trkpt>
      <trkpt lat="43.99751" lon="7.23521">
        <ele>1660.066</ele>
        <time>2009-05-09T09:52:07Z</time>
      </trkpt>
      <trkpt lat="43.99745" lon="7.23517">
        <ele>1659.747</ele>
        <time>2009-05-09T09:52:11Z</time>
      </trkpt>
      <trkpt lat="43.99739" lon="7.23517">
        <ele>1658.16</ele>
        <time>2009-05-09T09:52:14Z</time>
      </trkpt>
      <trkpt lat="43.99738" lon="7.235">
        <ele>1653.247</ele>
        <time>2009-05-09T09:52:21Z</time>
      </trkpt>
      <trkpt lat="43.99732" lon="7.235">
        <ele>1651.842</ele>
        <time>2009-05-09T09:52:24Z</time>
      </trkpt>
      <trkpt lat="43.99723" lon="7.23503">
        <ele>1649.277</ele>
        <time>2009-05-09T09:52:28Z</time>
      </trkpt>
      <trkpt lat="43.99715" lon="7.23495">
        <ele>1644.667</ele>
        <time>2009-05-09T09:52:34Z</time>
      </trkpt>
      <trkpt lat="43.99718" lon="7.23483">
        <ele>1641.177</ele>
        <time>2009-05-09T09:52:39Z</time>
      </trkpt>
      <trkpt lat="43.99716" lon="7.23481">
        <ele>1640.898</ele>
        <time>2009-05-09T09:52:40Z</time>
      </trkpt>
      <trkpt lat="43.99698" lon="7.23483">
        <ele>1635.637</ele>
        <time>2009-05-09T09:52:47Z</time>
      </trkpt>
      <trkpt lat="43.99694" lon="7.23485">
        <ele>1632.929</ele>
        <time>2009-05-09T09:52:54Z</time>
      </trkpt>
      <trkpt lat="43.99693" lon="7.23485">
        <ele>1631.843</ele>
        <time>2009-05-09T09:52:58Z</time>
      </trkpt>
      <trkpt lat="43.9969" lon="7.23481">
        <ele>1631.098</ele>
        <time>2009-05-09T09:53:04Z</time>
      </trkpt>
      <trkpt lat="43.99684" lon="7.23478">
        <ele>1629.43</ele>
        <time>2009-05-09T09:53:09Z</time>
      </trkpt>
      <trkpt lat="43.99679" lon="7.23471">
        <ele>1628.026</ele>
        <time>2009-05-09T09:53:15Z</time>
      </trkpt>
      <trkpt lat="43.99676" lon="7.23467">
        <ele>1627.158</ele>
        <time>2009-05-09T09:53:19Z</time>
      </trkpt>
      <trkpt lat="43.99664" lon="7.23469">
        <ele>1626.996</ele>
        <time>2009-05-09T09:53:24Z</time>
      </trkpt>
      <trkpt lat="43.99658" lon="7.23472">
        <ele>1624.765</ele>
        <time>2009-05-09T09:53:26Z</time>
      </trkpt>
      <trkpt lat="43.99649" lon="7.23474">
        <ele>1623.266</ele>
        <time>2009-05-09T09:53:29Z</time>
      </trkpt>
      <trkpt lat="43.99642" lon="7.2347">
        <ele>1623.703</ele>
        <time>2009-05-09T09:53:33Z</time>
      </trkpt>
      <trkpt lat="43.99644" lon="7.23455">
        <ele>1620.214</ele>
        <time>2009-05-09T09:53:39Z</time>
      </trkpt>
      <trkpt lat="43.99644" lon="7.23452">
        <ele>1618.532</ele>
        <time>2009-05-09T09:53:45Z</time>
      </trkpt>
      <trkpt lat="43.99643" lon="7.23452">
        <ele>1618.79</ele>
        <time>2009-05-09T09:53:49Z</time>
      </trkpt>
      <trkpt lat="43.99633" lon="7.23454">
        <ele>1618.031</ele>
        <time>2009-05-09T09:53:55Z</time>
      </trkpt>
      <trkpt lat="43.99632" lon="7.23437">
        <ele>1614.014</ele>
        <time>2009-05-09T09:54:01Z</time>
      </trkpt>
      <trkpt lat="43.99633" lon="7.23435">
        <ele>1613.132</ele>
        <time>2009-05-09T09:54:02Z</time>
      </trkpt>
      <trkpt lat="43.99633" lon="7.23432">
        <ele>1609.516</ele>
        <time>2009-05-09T09:54:10Z</time>
      </trkpt>
      <trkpt lat="43.99632" lon="7.23428">
        <ele>1609.765</ele>
        <time>2009-05-09T09:54:18Z</time>
      </trkpt>
      <trkpt lat="43.99615" lon="7.23426">
        <ele>1607.955</ele>
        <time>2009-05-09T09:54:23Z</time>
      </trkpt>
      <trkpt lat="43.996" lon="7.23426">
        <ele>1605.073</ele>
        <time>2009-05-09T09:54:26Z</time>
      </trkpt>
      <trkpt lat="43.99576" lon="7.2343">
        <ele>1600.029</ele>
        <time>2009-05-09T09:54:30Z</time>
      </trkpt>
      <trkpt lat="43.99565" lon="7.23428">
        <ele>1596.87</ele>
        <time>2009-05-09T09:54:32Z</time>
      </trkpt>
      <trkpt lat="43.99544" lon="7.23441">
        <ele>1593.235</ele>
        <time>2009-05-09T09:54:37Z</time>
      </trkpt>
      <trkpt lat="43.99537" lon="7.23449">
        <ele>1591.565</ele>
        <time>2009-05-09T09:54:42Z</time>
      </trkpt>
      <trkpt lat="43.99543" lon="7.23444">
        <ele>1589.785</ele>
        <time>2009-05-09T09:54:47Z</time>
      </trkpt>
      <trkpt lat="43.99556" lon="7.23421">
        <ele>1585.697</ele>
        <time>2009-05-09T09:54:52Z</time>
      </trkpt>
      <trkpt lat="43.99561" lon="7.23394">
        <ele>1584.16</ele>
        <time>2009-05-09T09:54:56Z</time>
      </trkpt>
      <trkpt lat="43.9955" lon="7.23381">
        <ele>1582.736</ele>
        <time>2009-05-09T09:54:59Z</time>
      </trkpt>
      <trkpt lat="43.9954" lon="7.23372">
        <ele>1581.451</ele>
        <time>2009-05-09T09:55:02Z</time>
      </trkpt>
      <trkpt lat="43.99517" lon="7.23363">
        <ele>1579.81</ele>
        <time>2009-05-09T09:55:07Z</time>
      </trkpt>
      <trkpt lat="43.99503" lon="7.23352">
        <ele>1578.704</ele>
        <time>2009-05-09T09:55:11Z</time>
      </trkpt>
      <trkpt lat="43.99477" lon="7.23338">
        <ele>1576.561</ele>
        <time>2009-05-09T09:55:18Z</time>
      </trkpt>
      <trkpt lat="43.99454" lon="7.23321">
        <ele>1569.214</ele>
        <time>2009-05-09T09:55:24Z</time>
      </trkpt>
      <trkpt lat="43.99434" lon="7.23313">
        <ele>1564.123</ele>
        <time>2009-05-09T09:55:30Z</time>
      </trkpt>
      <trkpt lat="43.99418" lon="7.23302">
        <ele>1560.756</ele>
        <time>2009-05-09T09:55:36Z</time>
      </trkpt>
      <trkpt lat="43.99403" lon="7.23289">
        <ele>1555.02</ele>
        <time>2009-05-09T09:55:42Z</time>
      </trkpt>
      <trkpt lat="43.99399" lon="7.23286">
        <ele>1555.45</ele>
        <time>2009-05-09T09:55:48Z</time>
      </trkpt>
      <trkpt lat="43.9939" lon="7.23284">
        <ele>1555.505</ele>
        <time>2009-05-09T09:57:00Z</time>
      </trkpt>
      <trkpt lat="43.99387" lon="7.23277">
        <ele>1556.187</ele>
        <time>2009-05-09T09:57:06Z</time>
      </trkpt>
      <trkpt lat="43.99374" lon="7.23267">
        <ele>1555.573</ele>
        <time>2009-05-09T09:57:12Z</time>
      </trkpt>
      <trkpt lat="43.99367" lon="7.23263">
        <ele>1554.699</ele>
        <time>2009-05-09T09:57:14Z</time>
      </trkpt>
      <trkpt lat="43.99334" lon="7.23232">
        <ele>1549.144</ele>
        <time>2009-05-09T09:57:21Z</time>
      </trkpt>
      <trkpt lat="43.99323" lon="7.23218">
        <ele>1546.557</ele>
        <time>2009-05-09T09:57:24Z</time>
      </trkpt>
      <trkpt lat="43.99322" lon="7.23215">
        <ele>1544.634</ele>
        <time>2009-05-09T09:57:28Z</time>
      </trkpt>
      <trkpt lat="43.99318" lon="7.23209">
        <ele>1546.681</ele>
        <time>2009-05-09T09:57:44Z</time>
      </trkpt>
      <trkpt lat="43.99307" lon="7.23202">
        <ele>1545.952</ele>
        <time>2009-05-09T09:57:49Z</time>
      </trkpt>
      <trkpt lat="43.99297" lon="7.23197">
        <ele>1544.552</ele>
        <time>2009-05-09T09:57:53Z</time>
      </trkpt>
      <trkpt lat="43.99271" lon="7.23191">
        <ele>1539.365</ele>
        <time>2009-05-09T09:58:00Z</time>
      </trkpt>
      <trkpt lat="43.99262" lon="7.2319">
        <ele>1532.969</ele>
        <time>2009-05-09T09:58:06Z</time>
      </trkpt>
      <trkpt lat="43.9926" lon="7.23189">
        <ele>1530.364</ele>
        <time>2009-05-09T09:58:15Z</time>
      </trkpt>
      <trkpt lat="43.99259" lon="7.2319">
        <ele>1530.057</ele>
        <time>2009-05-09T09:58:16Z</time>
      </trkpt>
      <trkpt lat="43.99238" lon="7.23181">
        <ele>1529.978</ele>
        <time>2009-05-09T09:58:22Z</time>
      </trkpt>
      <trkpt lat="43.99229" lon="7.23179">
        <ele>1528.808</ele>
        <time>2009-05-09T09:58:24Z</time>
      </trkpt>
      <trkpt lat="43.99216" lon="7.23175">
        <ele>1527.501</ele>
        <time>2009-05-09T09:58:29Z</time>
      </trkpt>
      <trkpt lat="43.99207" lon="7.23169">
        <ele>1527.298</ele>
        <time>2009-05-09T09:58:41Z</time>
      </trkpt>
      <trkpt lat="43.99202" lon="7.23168">
        <ele>1525.408</ele>
        <time>2009-05-09T09:58:46Z</time>
      </trkpt>
      <trkpt lat="43.992" lon="7.23166">
        <ele>1520.081</ele>
        <time>2009-05-09T09:59:08Z</time>
      </trkpt>
      <trkpt lat="43.99193" lon="7.23164">
        <ele>1518.701</ele>
        <time>2009-05-09T09:59:13Z</time>
      </trkpt>
      <trkpt lat="43.9919" lon="7.2316">
        <ele>1516.996</ele>
        <time>2009-05-09T09:59:30Z</time>
      </trkpt>
      <trkpt lat="43.99188" lon="7.23157">
        <ele>1516.514</ele>
        <time>2009-05-09T09:59:38Z</time>
      </trkpt>
      <trkpt lat="43.99188" lon="7.23158">
        <ele>1515.804</ele>
        <time>2009-05-09T09:59:51Z</time>
      </trkpt>
      <trkpt lat="43.99184" lon="7.23158">
        <ele>1512.91</ele>
        <time>2009-05-09T10:00:09Z</time>
      </trkpt>
      <trkpt lat="43.9918" lon="7.23159">
        <ele>1512.077</ele>
        <time>2009-05-09T10:00:18Z</time>
      </trkpt>
      <trkpt lat="43.9918" lon="7.2316">
        <ele>1511.264</ele>
        <time>2009-05-09T10:00:28Z</time>
      </trkpt>
      <trkpt lat="43.99171" lon="7.23161">
        <ele>1511.516</ele>
        <time>2009-05-09T10:00:37Z</time>
      </trkpt>
      <trkpt lat="43.9916" lon="7.23163">
        <ele>1510.09</ele>
        <time>2009-05-09T10:00:41Z</time>
      </trkpt>
      <trkpt lat="43.99136" lon="7.2317">
        <ele>1506.862</ele>
        <time>2009-05-09T10:00:48Z</time>
      </trkpt>
      <trkpt lat="43.99117" lon="7.23178">
        <ele>1502.964</ele>
        <time>2009-05-09T10:00:54Z</time>
      </trkpt>
      <trkpt lat="43.99094" lon="7.23187">
        <ele>1499.632</ele>
        <time>2009-05-09T10:01:00Z</time>
      </trkpt>
      <trkpt lat="43.99071" lon="7.23191">
        <ele>1498.194</ele>
        <time>2009-05-09T10:01:05Z</time>
      </trkpt>
      <trkpt lat="43.99051" lon="7.23195">
        <ele>1492.481</ele>
        <time>2009-05-09T10:01:11Z</time>
      </trkpt>
      <trkpt lat="43.99047" lon="7.23192">
        <ele>1489.988</ele>
        <time>2009-05-09T10:01:13Z</time>
      </trkpt>
      <trkpt lat="43.99037" lon="7.2318">
        <ele>1481.446</ele>
        <time>2009-05-09T10:01:19Z</time>
      </trkpt>
      <trkpt lat="43.99036" lon="7.23176">
        <ele>1477.303</ele>
        <time>2009-05-09T10:01:23Z</time>
      </trkpt>
      <trkpt lat="43.99045" lon="7.23162">
        <ele>1471.125</ele>
        <time>2009-05-09T10:01:29Z</time>
      </trkpt>
      <trkpt lat="43.99037" lon="7.23161">
        <ele>1468.244</ele>
        <time>2009-05-09T10:01:34Z</time>
      </trkpt>
      <trkpt lat="43.99035" lon="7.23161">
        <ele>1467.517</ele>
        <time>2009-05-09T10:01:39Z</time>
      </trkpt>
      <trkpt lat="43.99029" lon="7.23162">
        <ele>1466.517</ele>
        <time>2009-05-09T10:01:49Z</time>
      </trkpt>
      <trkpt lat="43.99028" lon="7.23163">
        <ele>1465.777</ele>
        <time>2009-05-09T10:01:58Z</time>
      </trkpt>
      <trkpt lat="43.99025" lon="7.23162">
        <ele>1467.25</ele>
        <time>2009-05-09T10:02:12Z</time>
      </trkpt>
      <trkpt lat="43.99025" lon="7.2316">
        <ele>1469.139</ele>
        <time>2009-05-09T10:02:20Z</time>
      </trkpt>
      <trkpt lat="43.99022" lon="7.23159">
        <ele>1467.687</ele>
        <time>2009-05-09T10:02:28Z</time>
      </trkpt>
      <trkpt lat="43.9902" lon="7.23157">
        <ele>1467.573</ele>
        <time>2009-05-09T10:02:32Z</time>
      </trkpt>
      <trkpt lat="43.99012" lon="7.23158">
        <ele>1467.081</ele>
        <time>2009-05-09T10:02:35Z</time>
      </trkpt>
      <trkpt lat="43.99008" lon="7.23148">
        <ele>1466.278</ele>
        <time>2009-05-09T10:02:40Z</time>
      </trkpt>
      <trkpt lat="43.99012" lon="7.23145">
        <ele>1465.766</ele>
        <time>2009-05-09T10:02:43Z</time>
      </trkpt>
      <trkpt lat="43.99012" lon="7.2314">
        <ele>1465.713</ele>
        <time>2009-05-09T10:02:51Z</time>
      </trkpt>
      <trkpt lat="43.99009" lon="7.23141">
        <ele>1464.519</ele>
        <time>2009-05-09T10:03:01Z</time>
      </trkpt>
      <trkpt lat="43.99007" lon="7.23138">
        <ele>1464.394</ele>
        <time>2009-05-09T10:03:07Z</time>
      </trkpt>
      <trkpt lat="43.98992" lon="7.23132">
        <ele>1463.902</ele>
        <time>2009-05-09T10:03:13Z</time>
      </trkpt>
      <trkpt lat="43.9898" lon="7.2312">
        <ele>1463.159</ele>
        <time>2009-05-09T10:03:17Z</time>
      </trkpt>
      <trkpt lat="43.98957" lon="7.2313">
        <ele>1461.616</ele>
        <time>2009-05-09T10:03:23Z</time>
      </trkpt>
      <trkpt lat="43.98951" lon="7.23129">
        <ele>1460.692</ele>
        <time>2009-05-09T10:03:27Z</time>
      </trkpt>
      <trkpt lat="43.98946" lon="7.2313">
        <ele>1459.969</ele>
        <time>2009-05-09T10:03:35Z</time>
      </trkpt>
      <trkpt lat="43.98947" lon="7.23129">
        <ele>1461.644</ele>
        <time>2009-05-09T10:03:44Z</time>
      </trkpt>
      <trkpt lat="43.98944" lon="7.23135">
        <ele>1460.636</ele>
        <time>2009-05-09T10:03:52Z</time>
      </trkpt>
      <trkpt lat="43.98942" lon="7.23135">
        <ele>1459.648</ele>
        <time>2009-05-09T10:03:55Z</time>
      </trkpt>
      <trkpt lat="43.98931" lon="7.23145">
        <ele>1456.825</ele>
        <time>2009-05-09T10:04:02Z</time>
      </trkpt>
      <trkpt lat="43.98923" lon="7.23143">
        <ele>1453.865</ele>
        <time>2009-05-09T10:04:06Z</time>
      </trkpt>
      <trkpt lat="43.98902" lon="7.23149">
        <ele>1449.458</ele>
        <time>2009-05-09T10:04:13Z</time>
      </trkpt>
      <trkpt lat="43.98875" lon="7.23148">
        <ele>1447.271</ele>
        <time>2009-05-09T10:04:20Z</time>
      </trkpt>
      <trkpt lat="43.98869" lon="7.23145">
        <ele>1446.342</ele>
        <time>2009-05-09T10:04:22Z</time>
      </trkpt>
      <trkpt lat="43.98854" lon="7.23149">
        <ele>1441.009</ele>
        <time>2009-05-09T10:04:28Z</time>
      </trkpt>
      <trkpt lat="43.98844" lon="7.23158">
        <ele>1431.764</ele>
        <time>2009-05-09T10:04:34Z</time>
      </trkpt>
      <trkpt lat="43.98842" lon="7.2316">
        <ele>1429.692</ele>
        <time>2009-05-09T10:04:35Z</time>
      </trkpt>
      <trkpt lat="43.98839" lon="7.23158">
        <ele>1426.659</ele>
        <time>2009-05-09T10:04:40Z</time>
      </trkpt>
      <trkpt lat="43.98839" lon="7.23158">
        <ele>1425.795</ele>
        <time>2009-05-09T10:04:58Z</time>
      </trkpt>
      <trkpt lat="43.9884" lon="7.23151">
        <ele>1423.442</ele>
        <time>2009-05-09T10:05:03Z</time>
      </trkpt>
      <trkpt lat="43.9883" lon="7.23149">
        <ele>1421.234</ele>
        <time>2009-05-09T10:05:08Z</time>
      </trkpt>
      <trkpt lat="43.98828" lon="7.23151">
        <ele>1420.99</ele>
        <time>2009-05-09T10:05:09Z</time>
      </trkpt>
      <trkpt lat="43.98821" lon="7.23158">
        <ele>1419.839</ele>
        <time>2009-05-09T10:05:12Z</time>
      </trkpt>
      <trkpt lat="43.98821" lon="7.2316">
        <ele>1418.43</ele>
        <time>2009-05-09T10:05:17Z</time>
      </trkpt>
      <trkpt lat="43.98809" lon="7.23168">
        <ele>1416.105</ele>
        <time>2009-05-09T10:05:23Z</time>
      </trkpt>
      <trkpt lat="43.98808" lon="7.23165">
        <ele>1415.395</ele>
        <time>2009-05-09T10:05:25Z</time>
      </trkpt>
      <trkpt lat="43.98809" lon="7.23162">
        <ele>1415.214</ele>
        <time>2009-05-09T10:05:27Z</time>
      </trkpt>
      <trkpt lat="43.98803" lon="7.23156">
        <ele>1413.576</ele>
        <time>2009-05-09T10:05:34Z</time>
      </trkpt>
      <trkpt lat="43.98799" lon="7.23158">
        <ele>1412.067</ele>
        <time>2009-05-09T10:05:43Z</time>
      </trkpt>
      <trkpt lat="43.98793" lon="7.23156">
        <ele>1411.224</ele>
        <time>2009-05-09T10:05:52Z</time>
      </trkpt>
      <trkpt lat="43.98788" lon="7.23154">
        <ele>1410.556</ele>
        <time>2009-05-09T10:06:00Z</time>
      </trkpt>
      <trkpt lat="43.98786" lon="7.23155">
        <ele>1409.767</ele>
        <time>2009-05-09T10:06:11Z</time>
      </trkpt>
      <trkpt lat="43.98788" lon="7.23155">
        <ele>1409.589</ele>
        <time>2009-05-09T10:06:34Z</time>
      </trkpt>
      <trkpt lat="43.98788" lon="7.23147">
        <ele>1408.7</ele>
        <time>2009-05-09T10:06:42Z</time>
      </trkpt>
      <trkpt lat="43.98786" lon="7.23147">
        <ele>1407.72</ele>
        <time>2009-05-09T10:06:50Z</time>
      </trkpt>
      <trkpt lat="43.98785" lon="7.23148">
        <ele>1406.522</ele>
        <time>2009-05-09T10:07:00Z</time>
      </trkpt>
      <trkpt lat="43.98786" lon="7.23142">
        <ele>1405.931</ele>
        <time>2009-05-09T10:07:08Z</time>
      </trkpt>
      <trkpt lat="43.98785" lon="7.23139">
        <ele>1405.53</ele>
        <time>2009-05-09T10:07:21Z</time>
      </trkpt>
      <trkpt lat="43.98786" lon="7.23132">
        <ele>1405.307</ele>
        <time>2009-05-09T10:07:31Z</time>
      </trkpt>
      <trkpt lat="43.98786" lon="7.23132">
        <ele>1405.474</ele>
        <time>2009-05-09T10:07:38Z</time>
      </trkpt>
      <trkpt lat="43.98774" lon="7.23132">
        <ele>1405.1</ele>
        <time>2009-05-09T10:07:44Z</time>
      </trkpt>
      <trkpt lat="43.98771" lon="7.23137">
        <ele>1405.037</ele>
        <time>2009-05-09T10:07:51Z</time>
      </trkpt>
      <trkpt lat="43.98765" lon="7.23136">
        <ele>1404.765</ele>
        <time>2009-05-09T10:07:59Z</time>
      </trkpt>
      <trkpt lat="43.98759" lon="7.23137">
        <ele>1405.005</ele>
        <time>2009-05-09T10:08:08Z</time>
      </trkpt>
      <trkpt lat="43.98755" lon="7.23136">
        <ele>1403.108</ele>
        <time>2009-05-09T10:08:16Z</time>
      </trkpt>
      <trkpt lat="43.98757" lon="7.23142">
        <ele>1401.849</ele>
        <time>2009-05-09T10:08:23Z</time>
      </trkpt>
      <trkpt lat="43.98757" lon="7.23145">
        <ele>1401.294</ele>
        <time>2009-05-09T10:08:28Z</time>
      </trkpt>
      <trkpt lat="43.98743" lon="7.23149">
        <ele>1400.262</ele>
        <time>2009-05-09T10:08:33Z</time>
      </trkpt>
      <trkpt lat="43.98738" lon="7.23151">
        <ele>1399.802</ele>
        <time>2009-05-09T10:08:34Z</time>
      </trkpt>
      <trkpt lat="43.98715" lon="7.23166">
        <ele>1397.058</ele>
        <time>2009-05-09T10:08:40Z</time>
      </trkpt>
      <trkpt lat="43.98701" lon="7.23179">
        <ele>1390.545</ele>
        <time>2009-05-09T10:08:46Z</time>
      </trkpt>
      <trkpt lat="43.98698" lon="7.23181">
        <ele>1389.515</ele>
        <time>2009-05-09T10:08:47Z</time>
      </trkpt>
      <trkpt lat="43.98698" lon="7.23187">
        <ele>1387.073</ele>
        <time>2009-05-09T10:08:53Z</time>
      </trkpt>
      <trkpt lat="43.98698" lon="7.23191">
        <ele>1386.563</ele>
        <time>2009-05-09T10:08:59Z</time>
      </trkpt>
      <trkpt lat="43.98689" lon="7.23195">
        <ele>1384.341</ele>
        <time>2009-05-09T10:09:04Z</time>
      </trkpt>
      <trkpt lat="43.98682" lon="7.23199">
        <ele>1383.201</ele>
        <time>2009-05-09T10:09:06Z</time>
      </trkpt>
      <trkpt lat="43.98647" lon="7.23214">
        <ele>1377.855</ele>
        <time>2009-05-09T10:09:14Z</time>
      </trkpt>
      <trkpt lat="43.9863" lon="7.23225">
        <ele>1374.835</ele>
        <time>2009-05-09T10:09:20Z</time>
      </trkpt>
      <trkpt lat="43.98611" lon="7.23227">
        <ele>1368.385</ele>
        <time>2009-05-09T10:09:26Z</time>
      </trkpt>
      <trkpt lat="43.98594" lon="7.23234">
        <ele>1365.424</ele>
        <time>2009-05-09T10:09:32Z</time>
      </trkpt>
      <trkpt lat="43.98592" lon="7.23236">
        <ele>1364.681</ele>
        <time>2009-05-09T10:09:37Z</time>
      </trkpt>
      <trkpt lat="43.98585" lon="7.23241">
        <ele>1363.154</ele>
        <time>2009-05-09T10:09:56Z</time>
      </trkpt>
      <trkpt lat="43.9858" lon="7.23244">
        <ele>1363.466</ele>
        <time>2009-05-09T10:09:59Z</time>
      </trkpt>
      <trkpt lat="43.98566" lon="7.23258">
        <ele>1366.357</ele>
        <time>2009-05-09T10:10:04Z</time>
      </trkpt>
      <trkpt lat="43.98555" lon="7.23272">
        <ele>1368.177</ele>
        <time>2009-05-09T10:10:10Z</time>
      </trkpt>
      <trkpt lat="43.98545" lon="7.23292">
        <ele>1368.504</ele>
        <time>2009-05-09T10:10:15Z</time>
      </trkpt>
      <trkpt lat="43.98536" lon="7.23314">
        <ele>1368.236</ele>
        <time>2009-05-09T10:10:21Z</time>
      </trkpt>
      <trkpt lat="43.98531" lon="7.23322">
        <ele>1369.14</ele>
        <time>2009-05-09T10:10:27Z</time>
      </trkpt>
      <trkpt lat="43.98522" lon="7.23332">
        <ele>1369.557</ele>
        <time>2009-05-09T10:10:44Z</time>
      </trkpt>
      <trkpt lat="43.98512" lon="7.23341">
        <ele>1370.842</ele>
        <time>2009-05-09T10:10:49Z</time>
      </trkpt>
      <trkpt lat="43.98509" lon="7.23348">
        <ele>1372.072</ele>
        <time>2009-05-09T10:10:57Z</time>
      </trkpt>
      <trkpt lat="43.98506" lon="7.23351">
        <ele>1372.511</ele>
        <time>2009-05-09T10:11:09Z</time>
      </trkpt>
      <trkpt lat="43.98503" lon="7.23353">
        <ele>1372.781</ele>
        <time>2009-05-09T10:11:29Z</time>
      </trkpt>
      <trkpt lat="43.98499" lon="7.23354">
        <ele>1372.736</ele>
        <time>2009-05-09T10:11:40Z</time>
      </trkpt>
      <trkpt lat="43.98496" lon="7.23357">
        <ele>1372.879</ele>
        <time>2009-05-09T10:11:42Z</time>
      </trkpt>
      <trkpt lat="43.9849" lon="7.23365">
        <ele>1373.583</ele>
        <time>2009-05-09T10:11:49Z</time>
      </trkpt>
      <trkpt lat="43.98489" lon="7.23365">
        <ele>1373.974</ele>
        <time>2009-05-09T10:11:51Z</time>
      </trkpt>
      <trkpt lat="43.98482" lon="7.23376">
        <ele>1375.413</ele>
        <time>2009-05-09T10:11:58Z</time>
      </trkpt>
      <trkpt lat="43.9848" lon="7.23378">
        <ele>1375.846</ele>
        <time>2009-05-09T10:12:00Z</time>
      </trkpt>
      <trkpt lat="43.98477" lon="7.23385">
        <ele>1376.533</ele>
        <time>2009-05-09T10:12:07Z</time>
      </trkpt>
      <trkpt lat="43.98474" lon="7.23387">
        <ele>1376.688</ele>
        <time>2009-05-09T10:12:10Z</time>
      </trkpt>
      <trkpt lat="43.98466" lon="7.23399">
        <ele>1377.699</ele>
        <time>2009-05-09T10:12:21Z</time>
      </trkpt>
      <trkpt lat="43.98459" lon="7.23409">
        <ele>1378.511</ele>
        <time>2009-05-09T10:12:32Z</time>
      </trkpt>
      <trkpt lat="43.98448" lon="7.23422">
        <ele>1379.537</ele>
        <time>2009-05-09T10:12:43Z</time>
      </trkpt>
      <trkpt lat="43.98442" lon="7.23439">
        <ele>1380.614</ele>
        <time>2009-05-09T10:12:55Z</time>
      </trkpt>
      <trkpt lat="43.98431" lon="7.23458">
        <ele>1381.831</ele>
        <time>2009-05-09T10:13:07Z</time>
      </trkpt>
      <trkpt lat="43.98424" lon="7.23474">
        <ele>1382.608</ele>
        <time>2009-05-09T10:13:15Z</time>
      </trkpt>
      <trkpt lat="43.98415" lon="7.23478">
        <ele>1383.474</ele>
        <time>2009-05-09T10:13:22Z</time>
      </trkpt>
      <trkpt lat="43.98409" lon="7.23485">
        <ele>1384.413</ele>
        <time>2009-05-09T10:13:30Z</time>
      </trkpt>
      <trkpt lat="43.98405" lon="7.23486">
        <ele>1385.28</ele>
        <time>2009-05-09T10:13:39Z</time>
      </trkpt>
      <trkpt lat="43.98386" lon="7.23494">
        <ele>1386.38</ele>
        <time>2009-05-09T10:13:46Z</time>
      </trkpt>
      <trkpt lat="43.98373" lon="7.23503">
        <ele>1387.844</ele>
        <time>2009-05-09T10:13:53Z</time>
      </trkpt>
      <trkpt lat="43.98362" lon="7.23509">
        <ele>1389.132</ele>
        <time>2009-05-09T10:13:59Z</time>
      </trkpt>
      <trkpt lat="43.98347" lon="7.23522">
        <ele>1389.997</ele>
        <time>2009-05-09T10:14:06Z</time>
      </trkpt>
      <trkpt lat="43.98345" lon="7.23525">
        <ele>1390.178</ele>
        <time>2009-05-09T10:14:07Z</time>
      </trkpt>
      <trkpt lat="43.98323" lon="7.23539">
        <ele>1390.427</ele>
        <time>2009-05-09T10:14:15Z</time>
      </trkpt>
      <trkpt lat="43.98298" lon="7.23553">
        <ele>1390.518</ele>
        <time>2009-05-09T10:14:23Z</time>
      </trkpt>
      <trkpt lat="43.9828" lon="7.23562">
        <ele>1390.802</ele>
        <time>2009-05-09T10:14:29Z</time>
      </trkpt>
      <trkpt lat="43.98256" lon="7.23577">
        <ele>1391.885</ele>
        <time>2009-05-09T10:14:36Z</time>
      </trkpt>
      <trkpt lat="43.98238" lon="7.23591">
        <ele>1392.686</ele>
        <time>2009-05-09T10:14:42Z</time>
      </trkpt>
      <trkpt lat="43.98226" lon="7.23597">
        <ele>1393.343</ele>
        <time>2009-05-09T10:14:47Z</time>
      </trkpt>
      <trkpt lat="43.9821" lon="7.23605">
        <ele>1393.945</ele>
        <time>2009-05-09T10:14:52Z</time>
      </trkpt>
      <trkpt lat="43.98193" lon="7.23607">
        <ele>1395.464</ele>
        <time>2009-05-09T10:14:58Z</time>
      </trkpt>
      <trkpt lat="43.9818" lon="7.23604">
        <ele>1396.468</ele>
        <time>2009-05-09T10:15:05Z</time>
      </trkpt>
      <trkpt lat="43.98171" lon="7.23596">
        <ele>1394.593</ele>
        <time>2009-05-09T10:15:11Z</time>
      </trkpt>
      <trkpt lat="43.98165" lon="7.23591">
        <ele>1392.07</ele>
        <time>2009-05-09T10:15:16Z</time>
      </trkpt>
      <trkpt lat="43.98164" lon="7.23588">
        <ele>1391.328</ele>
        <time>2009-05-09T10:15:19Z</time>
      </trkpt>
      <trkpt lat="43.98155" lon="7.23577">
        <ele>1389.536</ele>
        <time>2009-05-09T10:15:26Z</time>
      </trkpt>
      <trkpt lat="43.98152" lon="7.23575">
        <ele>1388.892</ele>
        <time>2009-05-09T10:15:28Z</time>
      </trkpt>
      <trkpt lat="43.98146" lon="7.23574">
        <ele>1389.164</ele>
        <time>2009-05-09T10:15:32Z</time>
      </trkpt>
      <trkpt lat="43.98131" lon="7.23566">
        <ele>1389.371</ele>
        <time>2009-05-09T10:15:40Z</time>
      </trkpt>
      <trkpt lat="43.98119" lon="7.23561">
        <ele>1390.273</ele>
        <time>2009-05-09T10:15:46Z</time>
      </trkpt>
      <trkpt lat="43.98105" lon="7.23552">
        <ele>1391.963</ele>
        <time>2009-05-09T10:15:53Z</time>
      </trkpt>
      <trkpt lat="43.98092" lon="7.23545">
        <ele>1391.54</ele>
        <time>2009-05-09T10:16:00Z</time>
      </trkpt>
      <trkpt lat="43.9808" lon="7.23533">
        <ele>1391.74</ele>
        <time>2009-05-09T10:16:07Z</time>
      </trkpt>
      <trkpt lat="43.98063" lon="7.2351">
        <ele>1390.491</ele>
        <time>2009-05-09T10:16:14Z</time>
      </trkpt>
      <trkpt lat="43.98049" lon="7.23495">
        <ele>1392.249</ele>
        <time>2009-05-09T10:16:21Z</time>
      </trkpt>
      <trkpt lat="43.98034" lon="7.23483">
        <ele>1393.153</ele>
        <time>2009-05-09T10:16:28Z</time>
      </trkpt>
      <trkpt lat="43.98021" lon="7.23477">
        <ele>1394.011</ele>
        <time>2009-05-09T10:16:34Z</time>
      </trkpt>
      <trkpt lat="43.98005" lon="7.23461">
        <ele>1393.312</ele>
        <time>2009-05-09T10:16:43Z</time>
      </trkpt>
      <trkpt lat="43.97994" lon="7.23454">
        <ele>1394.815</ele>
        <time>2009-05-09T10:16:49Z</time>
      </trkpt>
      <trkpt lat="43.97982" lon="7.23442">
        <ele>1396.084</ele>
        <time>2009-05-09T10:16:57Z</time>
      </trkpt>
      <trkpt lat="43.97973" lon="7.23431">
        <ele>1396.054</ele>
        <time>2009-05-09T10:17:03Z</time>
      </trkpt>
      <trkpt lat="43.97961" lon="7.23426">
        <ele>1395.319</ele>
        <time>2009-05-09T10:17:09Z</time>
      </trkpt>
      <trkpt lat="43.97959" lon="7.23426">
        <ele>1395.335</ele>
        <time>2009-05-09T10:17:14Z</time>
      </trkpt>
      <trkpt lat="43.97957" lon="7.23425">
        <ele>1395.924</ele>
        <time>2009-05-09T10:17:24Z</time>
      </trkpt>
      <trkpt lat="43.97953" lon="7.23426">
        <ele>1396.333</ele>
        <time>2009-05-09T10:17:32Z</time>
      </trkpt>
      <trkpt lat="43.9795" lon="7.23423">
        <ele>1396.219</ele>
        <time>2009-05-09T10:17:41Z</time>
      </trkpt>
      <trkpt lat="43.97941" lon="7.23421">
        <ele>1396.817</ele>
        <time>2009-05-09T10:17:49Z</time>
      </trkpt>
      <trkpt lat="43.9793" lon="7.2342">
        <ele>1396.993</ele>
        <time>2009-05-09T10:17:54Z</time>
      </trkpt>
      <trkpt lat="43.97913" lon="7.23423">
        <ele>1396.917</ele>
        <time>2009-05-09T10:18:01Z</time>
      </trkpt>
      <trkpt lat="43.97902" lon="7.23425">
        <ele>1397.588</ele>
        <time>2009-05-09T10:18:06Z</time>
      </trkpt>
      <trkpt lat="43.9789" lon="7.23429">
        <ele>1398.559</ele>
        <time>2009-05-09T10:18:12Z</time>
      </trkpt>
      <trkpt lat="43.97877" lon="7.2344">
        <ele>1398.516</ele>
        <time>2009-05-09T10:18:19Z</time>
      </trkpt>
      <trkpt lat="43.97867" lon="7.23447">
        <ele>1398.285</ele>
        <time>2009-05-09T10:18:25Z</time>
      </trkpt>
      <trkpt lat="43.9785" lon="7.23456">
        <ele>1398.134</ele>
        <time>2009-05-09T10:18:33Z</time>
      </trkpt>
      <trkpt lat="43.97848" lon="7.23456">
        <ele>1398.238</ele>
        <time>2009-05-09T10:18:34Z</time>
      </trkpt>
      <trkpt lat="43.97841" lon="7.23463">
        <ele>1396.979</ele>
        <time>2009-05-09T10:18:38Z</time>
      </trkpt>
      <trkpt lat="43.97822" lon="7.23473">
        <ele>1395.932</ele>
        <time>2009-05-09T10:18:45Z</time>
      </trkpt>
      <trkpt lat="43.97802" lon="7.23482">
        <ele>1394.667</ele>
        <time>2009-05-09T10:18:52Z</time>
      </trkpt>
      <trkpt lat="43.97782" lon="7.23497">
        <ele>1394.741</ele>
        <time>2009-05-09T10:18:59Z</time>
      </trkpt>
      <trkpt lat="43.9777" lon="7.23505">
        <ele>1395.432</ele>
        <time>2009-05-09T10:19:03Z</time>
      </trkpt>
      <trkpt lat="43.97754" lon="7.23521">
        <ele>1395.695</ele>
        <time>2009-05-09T10:19:09Z</time>
      </trkpt>
      <trkpt lat="43.97745" lon="7.2353">
        <ele>1395.62</ele>
        <time>2009-05-09T10:19:13Z</time>
      </trkpt>
      <trkpt lat="43.97743" lon="7.23544">
        <ele>1395.985</ele>
        <time>2009-05-09T10:19:20Z</time>
      </trkpt>
      <trkpt lat="43.97741" lon="7.23547">
        <ele>1395.756</ele>
        <time>2009-05-09T10:19:23Z</time>
      </trkpt>
      <trkpt lat="43.97736" lon="7.23557">
        <ele>1395.026</ele>
        <time>2009-05-09T10:19:30Z</time>
      </trkpt>
      <trkpt lat="43.97729" lon="7.23575">
        <ele>1395.242</ele>
        <time>2009-05-09T10:19:37Z</time>
      </trkpt>
      <trkpt lat="43.97728" lon="7.23577">
        <ele>1395.219</ele>
        <time>2009-05-09T10:19:38Z</time>
      </trkpt>
      <trkpt lat="43.97722" lon="7.23588">
        <ele>1395.229</ele>
        <time>2009-05-09T10:19:45Z</time>
      </trkpt>
      <trkpt lat="43.9772" lon="7.23603">
        <ele>1395.666</ele>
        <time>2009-05-09T10:19:55Z</time>
      </trkpt>
      <trkpt lat="43.97712" lon="7.23615">
        <ele>1395.996</ele>
        <time>2009-05-09T10:20:02Z</time>
      </trkpt>
      <trkpt lat="43.97705" lon="7.23623">
        <ele>1396.228</ele>
        <time>2009-05-09T10:20:07Z</time>
      </trkpt>
      <trkpt lat="43.97703" lon="7.23627">
        <ele>1395.996</ele>
        <time>2009-05-09T10:20:10Z</time>
      </trkpt>
      <trkpt lat="43.977" lon="7.23635">
        <ele>1396.106</ele>
        <time>2009-05-09T10:20:19Z</time>
      </trkpt>
      <trkpt lat="43.97699" lon="7.23636">
        <ele>1396.021</ele>
        <time>2009-05-09T10:20:20Z</time>
      </trkpt>
      <trkpt lat="43.97691" lon="7.2365">
        <ele>1398.581</ele>
        <time>2009-05-09T10:20:27Z</time>
      </trkpt>
      <trkpt lat="43.9768" lon="7.23658">
        <ele>1401.154</ele>
        <time>2009-05-09T10:20:33Z</time>
      </trkpt>
      <trkpt lat="43.97674" lon="7.23663">
        <ele>1403.731</ele>
        <time>2009-05-09T10:20:41Z</time>
      </trkpt>
      <trkpt lat="43.97667" lon="7.2367">
        <ele>1405.557</ele>
        <time>2009-05-09T10:20:46Z</time>
      </trkpt>
      <trkpt lat="43.97664" lon="7.2367">
        <ele>1406.915</ele>
        <time>2009-05-09T10:20:48Z</time>
      </trkpt>
      <trkpt lat="43.97656" lon="7.23672">
        <ele>1409.804</ele>
        <time>2009-05-09T10:20:53Z</time>
      </trkpt>
      <trkpt lat="43.9765" lon="7.23671">
        <ele>1412.783</ele>
        <time>2009-05-09T10:21:01Z</time>
      </trkpt>
      <trkpt lat="43.97642" lon="7.23667">
        <ele>1414.086</ele>
        <time>2009-05-09T10:21:07Z</time>
      </trkpt>
      <trkpt lat="43.97629" lon="7.23664">
        <ele>1415.04</ele>
        <time>2009-05-09T10:21:13Z</time>
      </trkpt>
      <trkpt lat="43.9762" lon="7.23658">
        <ele>1416.639</ele>
        <time>2009-05-09T10:21:19Z</time>
      </trkpt>
      <trkpt lat="43.97609" lon="7.23653">
        <ele>1418.631</ele>
        <time>2009-05-09T10:21:26Z</time>
      </trkpt>
      <trkpt lat="43.97592" lon="7.2365">
        <ele>1420.901</ele>
        <time>2009-05-09T10:21:32Z</time>
      </trkpt>
      <trkpt lat="43.9759" lon="7.23649">
        <ele>1421.485</ele>
        <time>2009-05-09T10:21:33Z</time>
      </trkpt>
      <trkpt lat="43.97579" lon="7.23659">
        <ele>1423.154</ele>
        <time>2009-05-09T10:21:39Z</time>
      </trkpt>
      <trkpt lat="43.9757" lon="7.23666">
        <ele>1424.562</ele>
        <time>2009-05-09T10:21:50Z</time>
      </trkpt>
      <trkpt lat="43.97556" lon="7.2367">
        <ele>1424.577</ele>
        <time>2009-05-09T10:21:55Z</time>
      </trkpt>
      <trkpt lat="43.97541" lon="7.23668">
        <ele>1423.324</ele>
        <time>2009-05-09T10:22:00Z</time>
      </trkpt>
      <trkpt lat="43.97516" lon="7.23675">
        <ele>1421.709</ele>
        <time>2009-05-09T10:22:06Z</time>
      </trkpt>
      <trkpt lat="43.97501" lon="7.23682">
        <ele>1421.499</ele>
        <time>2009-05-09T10:22:11Z</time>
      </trkpt>
      <trkpt lat="43.97495" lon="7.23686">
        <ele>1420.563</ele>
        <time>2009-05-09T10:22:15Z</time>
      </trkpt>
      <trkpt lat="43.9748" lon="7.23689">
        <ele>1417.89</ele>
        <time>2009-05-09T10:22:22Z</time>
      </trkpt>
      <trkpt lat="43.97471" lon="7.23694">
        <ele>1417</ele>
        <time>2009-05-09T10:22:28Z</time>
      </trkpt>
      <trkpt lat="43.97461" lon="7.23697">
        <ele>1414.795</ele>
        <time>2009-05-09T10:26:07Z</time>
      </trkpt>
      <trkpt lat="43.97447" lon="7.237">
        <ele>1413.285</ele>
        <time>2009-05-09T10:26:15Z</time>
      </trkpt>
      <trkpt lat="43.97437" lon="7.23701">
        <ele>1411.466</ele>
        <time>2009-05-09T10:26:22Z</time>
      </trkpt>
      <trkpt lat="43.9742" lon="7.23709">
        <ele>1412.005</ele>
        <time>2009-05-09T10:26:29Z</time>
      </trkpt>
      <trkpt lat="43.97401" lon="7.23715">
        <ele>1409.879</ele>
        <time>2009-05-09T10:26:36Z</time>
      </trkpt>
      <trkpt lat="43.97386" lon="7.23715">
        <ele>1410.964</ele>
        <time>2009-05-09T10:26:42Z</time>
      </trkpt>
      <trkpt lat="43.97372" lon="7.23714">
        <ele>1410.272</ele>
        <time>2009-05-09T10:26:48Z</time>
      </trkpt>
      <trkpt lat="43.97364" lon="7.23716">
        <ele>1410.298</ele>
        <time>2009-05-09T10:26:57Z</time>
      </trkpt>
      <trkpt lat="43.97356" lon="7.23721">
        <ele>1411.406</ele>
        <time>2009-05-09T10:27:02Z</time>
      </trkpt>
      <trkpt lat="43.97354" lon="7.23723">
        <ele>1411.644</ele>
        <time>2009-05-09T10:27:03Z</time>
      </trkpt>
      <trkpt lat="43.97344" lon="7.2373">
        <ele>1413.857</ele>
        <time>2009-05-09T10:27:12Z</time>
      </trkpt>
      <trkpt lat="43.97332" lon="7.23738">
        <ele>1414.844</ele>
        <time>2009-05-09T10:27:18Z</time>
      </trkpt>
      <trkpt lat="43.97327" lon="7.23741">
        <ele>1416.207</ele>
        <time>2009-05-09T10:27:24Z</time>
      </trkpt>
      <trkpt lat="43.97317" lon="7.23748">
        <ele>1417.019</ele>
        <time>2009-05-09T10:27:32Z</time>
      </trkpt>
      <trkpt lat="43.97316" lon="7.2375">
        <ele>1417.007</ele>
        <time>2009-05-09T10:27:33Z</time>
      </trkpt>
      <trkpt lat="43.9731" lon="7.23753">
        <ele>1418.689</ele>
        <time>2009-05-09T10:27:37Z</time>
      </trkpt>
      <trkpt lat="43.97304" lon="7.23773">
        <ele>1418.2</ele>
        <time>2009-05-09T10:27:45Z</time>
      </trkpt>
      <trkpt lat="43.97303" lon="7.23783">
        <ele>1418.064</ele>
        <time>2009-05-09T10:27:47Z</time>
      </trkpt>
      <trkpt lat="43.97294" lon="7.23817">
        <ele>1415.864</ele>
        <time>2009-05-09T10:27:52Z</time>
      </trkpt>
      <trkpt lat="43.97284" lon="7.23842">
        <ele>1415.714</ele>
        <time>2009-05-09T10:27:56Z</time>
      </trkpt>
      <trkpt lat="43.97257" lon="7.23867">
        <ele>1414.305</ele>
        <time>2009-05-09T10:28:02Z</time>
      </trkpt>
      <trkpt lat="43.97243" lon="7.23878">
        <ele>1414.821</ele>
        <time>2009-05-09T10:28:06Z</time>
      </trkpt>
      <trkpt lat="43.97236" lon="7.2388">
        <ele>1414.657</ele>
        <time>2009-05-09T10:28:11Z</time>
      </trkpt>
      <trkpt lat="43.97228" lon="7.23887">
        <ele>1414.529</ele>
        <time>2009-05-09T10:28:22Z</time>
      </trkpt>
      <trkpt lat="43.97227" lon="7.23889">
        <ele>1414.427</ele>
        <time>2009-05-09T10:28:29Z</time>
      </trkpt>
      <trkpt lat="43.97225" lon="7.23893">
        <ele>1414.636</ele>
        <time>2009-05-09T10:28:40Z</time>
      </trkpt>
      <trkpt lat="43.97223" lon="7.23894">
        <ele>1414.273</ele>
        <time>2009-05-09T10:28:50Z</time>
      </trkpt>
      <trkpt lat="43.97217" lon="7.23898">
        <ele>1413.822</ele>
        <time>2009-05-09T10:29:01Z</time>
      </trkpt>
      <trkpt lat="43.97204" lon="7.23907">
        <ele>1413.391</ele>
        <time>2009-05-09T10:29:08Z</time>
      </trkpt>
      <trkpt lat="43.97186" lon="7.23921">
        <ele>1411.754</ele>
        <time>2009-05-09T10:29:16Z</time>
      </trkpt>
      <trkpt lat="43.97169" lon="7.23931">
        <ele>1410.295</ele>
        <time>2009-05-09T10:29:22Z</time>
      </trkpt>
      <trkpt lat="43.9715" lon="7.23937">
        <ele>1411.193</ele>
        <time>2009-05-09T10:29:30Z</time>
      </trkpt>
      <trkpt lat="43.97134" lon="7.23939">
        <ele>1408.418</ele>
        <time>2009-05-09T10:29:38Z</time>
      </trkpt>
      <trkpt lat="43.97123" lon="7.23942">
        <ele>1412.858</ele>
        <time>2009-05-09T10:29:45Z</time>
      </trkpt>
      <trkpt lat="43.97119" lon="7.23941">
        <ele>1409.721</ele>
        <time>2009-05-09T10:29:52Z</time>
      </trkpt>
      <trkpt lat="43.97119" lon="7.2394">
        <ele>1411.162</ele>
        <time>2009-05-09T10:30:08Z</time>
      </trkpt>
      <trkpt lat="43.97117" lon="7.23941">
        <ele>1411.419</ele>
        <time>2009-05-09T10:30:19Z</time>
      </trkpt>
      <trkpt lat="43.97111" lon="7.23938">
        <ele>1410.76</ele>
        <time>2009-05-09T10:30:28Z</time>
      </trkpt>
      <trkpt lat="43.97109" lon="7.23934">
        <ele>1407.726</ele>
        <time>2009-05-09T10:30:37Z</time>
      </trkpt>
      <trkpt lat="43.97105" lon="7.23932">
        <ele>1406.933</ele>
        <time>2009-05-09T10:30:46Z</time>
      </trkpt>
      <trkpt lat="43.97098" lon="7.2392">
        <ele>1406.332</ele>
        <time>2009-05-09T10:30:52Z</time>
      </trkpt>
      <trkpt lat="43.97099" lon="7.2392">
        <ele>1406.346</ele>
        <time>2009-05-09T10:30:59Z</time>
      </trkpt>
      <trkpt lat="43.97097" lon="7.23914">
        <ele>1406.435</ele>
        <time>2009-05-09T10:31:09Z</time>
      </trkpt>
      <trkpt lat="43.97095" lon="7.23912">
        <ele>1406.859</ele>
        <time>2009-05-09T10:31:16Z</time>
      </trkpt>
      <trkpt lat="43.97092" lon="7.23902">
        <ele>1405.647</ele>
        <time>2009-05-09T10:31:25Z</time>
      </trkpt>
      <trkpt lat="43.97084" lon="7.23886">
        <ele>1405.218</ele>
        <time>2009-05-09T10:31:32Z</time>
      </trkpt>
      <trkpt lat="43.97076" lon="7.23876">
        <ele>1405.785</ele>
        <time>2009-05-09T10:31:39Z</time>
      </trkpt>
      <trkpt lat="43.97074" lon="7.23874">
        <ele>1406.121</ele>
        <time>2009-05-09T10:31:45Z</time>
      </trkpt>
      <trkpt lat="43.97073" lon="7.23874">
        <ele>1407.028</ele>
        <time>2009-05-09T10:31:46Z</time>
      </trkpt>
      <trkpt lat="43.97069" lon="7.23868">
        <ele>1406.069</ele>
        <time>2009-05-09T10:31:50Z</time>
      </trkpt>
      <trkpt lat="43.97064" lon="7.23856">
        <ele>1405.388</ele>
        <time>2009-05-09T10:31:56Z</time>
      </trkpt>
      <trkpt lat="43.97061" lon="7.23853">
        <ele>1404.293</ele>
        <time>2009-05-09T10:32:03Z</time>
      </trkpt>
      <trkpt lat="43.97059" lon="7.23847">
        <ele>1402.958</ele>
        <time>2009-05-09T10:32:10Z</time>
      </trkpt>
      <trkpt lat="43.97058" lon="7.23845">
        <ele>1403.011</ele>
        <time>2009-05-09T10:32:12Z</time>
      </trkpt>
      <trkpt lat="43.97055" lon="7.23834">
        <ele>1403.078</ele>
        <time>2009-05-09T10:32:19Z</time>
      </trkpt>
      <trkpt lat="43.97054" lon="7.23834">
        <ele>1402.915</ele>
        <time>2009-05-09T10:32:20Z</time>
      </trkpt>
      <trkpt lat="43.97043" lon="7.23838">
        <ele>1401.683</ele>
        <time>2009-05-09T10:32:26Z</time>
      </trkpt>
      <trkpt lat="43.97033" lon="7.23836">
        <ele>1401.468</ele>
        <time>2009-05-09T10:32:30Z</time>
      </trkpt>
      <trkpt lat="43.97016" lon="7.23824">
        <ele>1398.364</ele>
        <time>2009-05-09T10:32:37Z</time>
      </trkpt>
      <trkpt lat="43.97001" lon="7.2381">
        <ele>1397.406</ele>
        <time>2009-05-09T10:32:43Z</time>
      </trkpt>
      <trkpt lat="43.96993" lon="7.23798">
        <ele>1399.523</ele>
        <time>2009-05-09T10:32:49Z</time>
      </trkpt>
      <trkpt lat="43.96991" lon="7.23792">
        <ele>1400.431</ele>
        <time>2009-05-09T10:32:54Z</time>
      </trkpt>
      <trkpt lat="43.96986" lon="7.23789">
        <ele>1399.441</ele>
        <time>2009-05-09T10:33:00Z</time>
      </trkpt>
      <trkpt lat="43.96984" lon="7.23784">
        <ele>1399.002</ele>
        <time>2009-05-09T10:33:09Z</time>
      </trkpt>
      <trkpt lat="43.9698" lon="7.23779">
        <ele>1399.41</ele>
        <time>2009-05-09T10:33:15Z</time>
      </trkpt>
      <trkpt lat="43.96972" lon="7.23775">
        <ele>1398.755</ele>
        <time>2009-05-09T10:33:20Z</time>
      </trkpt>
      <trkpt lat="43.96962" lon="7.23769">
        <ele>1398.946</ele>
        <time>2009-05-09T10:33:26Z</time>
      </trkpt>
      <trkpt lat="43.9695" lon="7.23758">
        <ele>1400.163</ele>
        <time>2009-05-09T10:33:33Z</time>
      </trkpt>
      <trkpt lat="43.96939" lon="7.23751">
        <ele>1401.073</ele>
        <time>2009-05-09T10:33:39Z</time>
      </trkpt>
      <trkpt lat="43.96923" lon="7.2375">
        <ele>1400.882</ele>
        <time>2009-05-09T10:33:44Z</time>
      </trkpt>
      <trkpt lat="43.9691" lon="7.23752">
        <ele>1403.31</ele>
        <time>2009-05-09T10:33:49Z</time>
      </trkpt>
      <trkpt lat="43.96897" lon="7.2375">
        <ele>1403.884</ele>
        <time>2009-05-09T10:33:55Z</time>
      </trkpt>
      <trkpt lat="43.96882" lon="7.23748">
        <ele>1402.386</ele>
        <time>2009-05-09T10:34:03Z</time>
      </trkpt>
      <trkpt lat="43.96869" lon="7.23745">
        <ele>1404.639</ele>
        <time>2009-05-09T10:34:11Z</time>
      </trkpt>
      <trkpt lat="43.96859" lon="7.23744">
        <ele>1407.907</ele>
        <time>2009-05-09T10:34:18Z</time>
      </trkpt>
      <trkpt lat="43.96842" lon="7.23747">
        <ele>1410.419</ele>
        <time>2009-05-09T10:34:27Z</time>
      </trkpt>
      <trkpt lat="43.9683" lon="7.23745">
        <ele>1413.468</ele>
        <time>2009-05-09T10:34:35Z</time>
      </trkpt>
      <trkpt lat="43.96816" lon="7.23747">
        <ele>1416.901</ele>
        <time>2009-05-09T10:34:44Z</time>
      </trkpt>
      <trkpt lat="43.96801" lon="7.23748">
        <ele>1418.686</ele>
        <time>2009-05-09T10:34:52Z</time>
      </trkpt>
      <trkpt lat="43.96786" lon="7.23751">
        <ele>1418.009</ele>
        <time>2009-05-09T10:34:59Z</time>
      </trkpt>
      <trkpt lat="43.96764" lon="7.23755">
        <ele>1417.632</ele>
        <time>2009-05-09T10:35:08Z</time>
      </trkpt>
      <trkpt lat="43.96747" lon="7.23758">
        <ele>1416.662</ele>
        <time>2009-05-09T10:35:14Z</time>
      </trkpt>
      <trkpt lat="43.96743" lon="7.23759">
        <ele>1417.12</ele>
        <time>2009-05-09T10:35:19Z</time>
      </trkpt>
      <trkpt lat="43.96734" lon="7.23761">
        <ele>1416.934</ele>
        <time>2009-05-09T10:35:57Z</time>
      </trkpt>
      <trkpt lat="43.96714" lon="7.23765">
        <ele>1415.635</ele>
        <time>2009-05-09T10:36:04Z</time>
      </trkpt>
      <trkpt lat="43.96701" lon="7.23763">
        <ele>1415.11</ele>
        <time>2009-05-09T10:36:09Z</time>
      </trkpt>
      <trkpt lat="43.96697" lon="7.23762">
        <ele>1415.327</ele>
        <time>2009-05-09T10:36:10Z</time>
      </trkpt>
      <trkpt lat="43.96672" lon="7.23765">
        <ele>1413.577</ele>
        <time>2009-05-09T10:36:16Z</time>
      </trkpt>
      <trkpt lat="43.9666" lon="7.23776">
        <ele>1415.036</ele>
        <time>2009-05-09T10:36:21Z</time>
      </trkpt>
      <trkpt lat="43.96658" lon="7.23777">
        <ele>1415.022</ele>
        <time>2009-05-09T10:36:22Z</time>
      </trkpt>
      <trkpt lat="43.96646" lon="7.23779">
        <ele>1414.239</ele>
        <time>2009-05-09T10:36:29Z</time>
      </trkpt>
      <trkpt lat="43.96636" lon="7.23781">
        <ele>1415.659</ele>
        <time>2009-05-09T10:36:37Z</time>
      </trkpt>
      <trkpt lat="43.96633" lon="7.2378">
        <ele>1415.467</ele>
        <time>2009-05-09T10:36:38Z</time>
      </trkpt>
      <trkpt lat="43.96627" lon="7.23784">
        <ele>1417.019</ele>
        <time>2009-05-09T10:36:44Z</time>
      </trkpt>
      <trkpt lat="43.96623" lon="7.23782">
        <ele>1417.823</ele>
        <time>2009-05-09T10:36:47Z</time>
      </trkpt>
      <trkpt lat="43.96612" lon="7.23782">
        <ele>1420.077</ele>
        <time>2009-05-09T10:36:54Z</time>
      </trkpt>
      <trkpt lat="43.96602" lon="7.23785">
        <ele>1421.473</ele>
        <time>2009-05-09T10:37:00Z</time>
      </trkpt>
      <trkpt lat="43.96588" lon="7.23789">
        <ele>1424.527</ele>
        <time>2009-05-09T10:37:08Z</time>
      </trkpt>
      <trkpt lat="43.96578" lon="7.23788">
        <ele>1427.885</ele>
        <time>2009-05-09T10:37:15Z</time>
      </trkpt>
      <trkpt lat="43.96574" lon="7.23787">
        <ele>1430.672</ele>
        <time>2009-05-09T10:37:19Z</time>
      </trkpt>
      <trkpt lat="43.96567" lon="7.2379">
        <ele>1431.835</ele>
        <time>2009-05-09T10:37:26Z</time>
      </trkpt>
      <trkpt lat="43.96553" lon="7.23797">
        <ele>1432.844</ele>
        <time>2009-05-09T10:37:32Z</time>
      </trkpt>
      <trkpt lat="43.96545" lon="7.238">
        <ele>1433.216</ele>
        <time>2009-05-09T10:37:37Z</time>
      </trkpt>
      <trkpt lat="43.96527" lon="7.23808">
        <ele>1435.287</ele>
        <time>2009-05-09T10:37:46Z</time>
      </trkpt>
      <trkpt lat="43.96515" lon="7.23814">
        <ele>1436.241</ele>
        <time>2009-05-09T10:37:52Z</time>
      </trkpt>
      <trkpt lat="43.96501" lon="7.23824">
        <ele>1438.005</ele>
        <time>2009-05-09T10:37:59Z</time>
      </trkpt>
      <trkpt lat="43.96489" lon="7.23834">
        <ele>1437.943</ele>
        <time>2009-05-09T10:38:05Z</time>
      </trkpt>
      <trkpt lat="43.96475" lon="7.23847">
        <ele>1434.611</ele>
        <time>2009-05-09T10:38:11Z</time>
      </trkpt>
      <trkpt lat="43.96472" lon="7.2385">
        <ele>1434.703</ele>
        <time>2009-05-09T10:38:12Z</time>
      </trkpt>
      <trkpt lat="43.96445" lon="7.2387">
        <ele>1428.958</ele>
        <time>2009-05-09T10:38:20Z</time>
      </trkpt>
      <trkpt lat="43.96435" lon="7.23877">
        <ele>1426.117</ele>
        <time>2009-05-09T10:38:23Z</time>
      </trkpt>
      <trkpt lat="43.96409" lon="7.23888">
        <ele>1421.58</ele>
        <time>2009-05-09T10:38:30Z</time>
      </trkpt>
      <trkpt lat="43.96382" lon="7.23903">
        <ele>1418.668</ele>
        <time>2009-05-09T10:38:36Z</time>
      </trkpt>
      <trkpt lat="43.96352" lon="7.2392">
        <ele>1417.579</ele>
        <time>2009-05-09T10:38:42Z</time>
      </trkpt>
      <trkpt lat="43.96324" lon="7.23933">
        <ele>1416.092</ele>
        <time>2009-05-09T10:38:48Z</time>
      </trkpt>
      <trkpt lat="43.96304" lon="7.23946">
        <ele>1414.445</ele>
        <time>2009-05-09T10:38:53Z</time>
      </trkpt>
      <trkpt lat="43.96296" lon="7.23954">
        <ele>1414.55</ele>
        <time>2009-05-09T10:38:55Z</time>
      </trkpt>
      <trkpt lat="43.96284" lon="7.23964">
        <ele>1413.269</ele>
        <time>2009-05-09T10:38:58Z</time>
      </trkpt>
      <trkpt lat="43.96259" lon="7.23984">
        <ele>1412.121</ele>
        <time>2009-05-09T10:39:04Z</time>
      </trkpt>
      <trkpt lat="43.96228" lon="7.24012">
        <ele>1409.859</ele>
        <time>2009-05-09T10:39:11Z</time>
      </trkpt>
      <trkpt lat="43.96215" lon="7.24018">
        <ele>1408.281</ele>
        <time>2009-05-09T10:39:14Z</time>
      </trkpt>
      <trkpt lat="43.96198" lon="7.24047">
        <ele>1404.053</ele>
        <time>2009-05-09T10:39:19Z</time>
      </trkpt>
      <trkpt lat="43.96181" lon="7.24063">
        <ele>1402.828</ele>
        <time>2009-05-09T10:39:22Z</time>
      </trkpt>
      <trkpt lat="43.96148" lon="7.241">
        <ele>1401.452</ele>
        <time>2009-05-09T10:39:29Z</time>
      </trkpt>
      <trkpt lat="43.96128" lon="7.24122">
        <ele>1398.59</ele>
        <time>2009-05-09T10:39:34Z</time>
      </trkpt>
      <trkpt lat="43.96119" lon="7.24126">
        <ele>1398.519</ele>
        <time>2009-05-09T10:39:38Z</time>
      </trkpt>
      <trkpt lat="43.9612" lon="7.24127">
        <ele>1399.506</ele>
        <time>2009-05-09T10:39:52Z</time>
      </trkpt>
      <trkpt lat="43.96117" lon="7.24132">
        <ele>1401.995</ele>
        <time>2009-05-09T10:40:02Z</time>
      </trkpt>
      <trkpt lat="43.96117" lon="7.24137">
        <ele>1402.01</ele>
        <time>2009-05-09T10:40:17Z</time>
      </trkpt>
      <trkpt lat="43.96114" lon="7.24141">
        <ele>1401.619</ele>
        <time>2009-05-09T10:40:24Z</time>
      </trkpt>
      <trkpt lat="43.96106" lon="7.24155">
        <ele>1400.772</ele>
        <time>2009-05-09T10:40:30Z</time>
      </trkpt>
      <trkpt lat="43.96104" lon="7.2416">
        <ele>1400.423</ele>
        <time>2009-05-09T10:40:32Z</time>
      </trkpt>
      <trkpt lat="43.96096" lon="7.24172">
        <ele>1398.413</ele>
        <time>2009-05-09T10:40:39Z</time>
      </trkpt>
      <trkpt lat="43.96095" lon="7.2418">
        <ele>1399.56</ele>
        <time>2009-05-09T10:40:55Z</time>
      </trkpt>
      <trkpt lat="43.96093" lon="7.24185">
        <ele>1400.01</ele>
        <time>2009-05-09T10:40:59Z</time>
      </trkpt>
      <trkpt lat="43.9609" lon="7.24195">
        <ele>1399.156</ele>
        <time>2009-05-09T10:41:05Z</time>
      </trkpt>
      <trkpt lat="43.9609" lon="7.24205">
        <ele>1398.725</ele>
        <time>2009-05-09T10:41:15Z</time>
      </trkpt>
      <trkpt lat="43.96085" lon="7.24216">
        <ele>1398.029</ele>
        <time>2009-05-09T10:41:21Z</time>
      </trkpt>
      <trkpt lat="43.96085" lon="7.24226">
        <ele>1396.302</ele>
        <time>2009-05-09T10:41:28Z</time>
      </trkpt>
      <trkpt lat="43.96081" lon="7.24238">
        <ele>1395.345</ele>
        <time>2009-05-09T10:41:34Z</time>
      </trkpt>
      <trkpt lat="43.96075" lon="7.24256">
        <ele>1392.716</ele>
        <time>2009-05-09T10:41:40Z</time>
      </trkpt>
      <trkpt lat="43.96067" lon="7.2428">
        <ele>1389.424</ele>
        <time>2009-05-09T10:41:47Z</time>
      </trkpt>
      <trkpt lat="43.96057" lon="7.243">
        <ele>1388.369</ele>
        <time>2009-05-09T10:41:55Z</time>
      </trkpt>
      <trkpt lat="43.96046" lon="7.24321">
        <ele>1388.519</ele>
        <time>2009-05-09T10:42:04Z</time>
      </trkpt>
      <trkpt lat="43.96034" lon="7.2433">
        <ele>1386.923</ele>
        <time>2009-05-09T10:42:09Z</time>
      </trkpt>
      <trkpt lat="43.96016" lon="7.2434">
        <ele>1387.221</ele>
        <time>2009-05-09T10:42:15Z</time>
      </trkpt>
      <trkpt lat="43.95996" lon="7.24354">
        <ele>1386.334</ele>
        <time>2009-05-09T10:42:22Z</time>
      </trkpt>
      <trkpt lat="43.95986" lon="7.24365">
        <ele>1387.971</ele>
        <time>2009-05-09T10:42:27Z</time>
      </trkpt>
      <trkpt lat="43.95986" lon="7.2438">
        <ele>1387.405</ele>
        <time>2009-05-09T10:42:33Z</time>
      </trkpt>
      <trkpt lat="43.95984" lon="7.24395">
        <ele>1386.175</ele>
        <time>2009-05-09T10:42:40Z</time>
      </trkpt>
      <trkpt lat="43.95982" lon="7.24406">
        <ele>1385.303</ele>
        <time>2009-05-09T10:42:47Z</time>
      </trkpt>
      <trkpt lat="43.95981" lon="7.24406">
        <ele>1383.848</ele>
        <time>2009-05-09T10:43:09Z</time>
      </trkpt>
      <trkpt lat="43.95975" lon="7.24403">
        <ele>1383.893</ele>
        <time>2009-05-09T10:43:13Z</time>
      </trkpt>
      <trkpt lat="43.9596" lon="7.24394">
        <ele>1385.546</ele>
        <time>2009-05-09T10:43:22Z</time>
      </trkpt>
      <trkpt lat="43.95949" lon="7.24393">
        <ele>1387.536</ele>
        <time>2009-05-09T10:43:31Z</time>
      </trkpt>
      <trkpt lat="43.95938" lon="7.2439">
        <ele>1390.401</ele>
        <time>2009-05-09T10:43:40Z</time>
      </trkpt>
      <trkpt lat="43.95934" lon="7.2439">
        <ele>1390.811</ele>
        <time>2009-05-09T10:43:43Z</time>
      </trkpt>
      <trkpt lat="43.95922" lon="7.244">
        <ele>1395.017</ele>
        <time>2009-05-09T10:43:52Z</time>
      </trkpt>
      <trkpt lat="43.95914" lon="7.24403">
        <ele>1396.213</ele>
        <time>2009-05-09T10:43:58Z</time>
      </trkpt>
      <trkpt lat="43.95911" lon="7.24403">
        <ele>1395.545</ele>
        <time>2009-05-09T10:44:04Z</time>
      </trkpt>
      <trkpt lat="43.95906" lon="7.244">
        <ele>1394.229</ele>
        <time>2009-05-09T10:44:15Z</time>
      </trkpt>
      <trkpt lat="43.95899" lon="7.24403">
        <ele>1393.473</ele>
        <time>2009-05-09T10:44:20Z</time>
      </trkpt>
      <trkpt lat="43.95891" lon="7.24402">
        <ele>1394.072</ele>
        <time>2009-05-09T10:44:26Z</time>
      </trkpt>
      <trkpt lat="43.95887" lon="7.24407">
        <ele>1395.075</ele>
        <time>2009-05-09T10:44:33Z</time>
      </trkpt>
      <trkpt lat="43.95889" lon="7.24408">
        <ele>1397.546</ele>
        <time>2009-05-09T11:08:34Z</time>
      </trkpt>
      <trkpt lat="43.95889" lon="7.24408">
        <ele>1397.6</ele>
        <time>2009-05-09T11:08:42Z</time>
      </trkpt>
      <trkpt lat="43.95879" lon="7.244">
        <ele>1399.097</ele>
        <time>2009-05-09T11:08:50Z</time>
      </trkpt>
      <trkpt lat="43.95868" lon="7.24396">
        <ele>1401.79</ele>
        <time>2009-05-09T11:08:59Z</time>
      </trkpt>
      <trkpt lat="43.9586" lon="7.24387">
        <ele>1401.39</ele>
        <time>2009-05-09T11:09:07Z</time>
      </trkpt>
      <trkpt lat="43.95854" lon="7.24371">
        <ele>1403.16</ele>
        <time>2009-05-09T11:09:18Z</time>
      </trkpt>
      <trkpt lat="43.95845" lon="7.24369">
        <ele>1403.111</ele>
        <time>2009-05-09T11:09:25Z</time>
      </trkpt>
      <trkpt lat="43.9584" lon="7.24368">
        <ele>1403.59</ele>
        <time>2009-05-09T11:09:30Z</time>
      </trkpt>
      <trkpt lat="43.95836" lon="7.24367">
        <ele>1403.7</ele>
        <time>2009-05-09T11:09:33Z</time>
      </trkpt>
      <trkpt lat="43.95829" lon="7.24366">
        <ele>1402.98</ele>
        <time>2009-05-09T11:09:40Z</time>
      </trkpt>
      <trkpt lat="43.95825" lon="7.24366">
        <ele>1402.016</ele>
        <time>2009-05-09T11:09:44Z</time>
      </trkpt>
      <trkpt lat="43.95815" lon="7.24371">
        <ele>1402.98</ele>
        <time>2009-05-09T11:09:52Z</time>
      </trkpt>
      <trkpt lat="43.95807" lon="7.24372">
        <ele>1403.316</ele>
        <time>2009-05-09T11:09:59Z</time>
      </trkpt>
      <trkpt lat="43.95798" lon="7.24369">
        <ele>1402.55</ele>
        <time>2009-05-09T11:10:06Z</time>
      </trkpt>
      <trkpt lat="43.95796" lon="7.24365">
        <ele>1403.362</ele>
        <time>2009-05-09T11:10:08Z</time>
      </trkpt>
      <trkpt lat="43.95787" lon="7.24356">
        <ele>1404.096</ele>
        <time>2009-05-09T11:10:17Z</time>
      </trkpt>
      <trkpt lat="43.95776" lon="7.24352">
        <ele>1404.191</ele>
        <time>2009-05-09T11:10:26Z</time>
      </trkpt>
      <trkpt lat="43.95763" lon="7.24356">
        <ele>1403.468</ele>
        <time>2009-05-09T11:10:33Z</time>
      </trkpt>
      <trkpt lat="43.95753" lon="7.24357">
        <ele>1403.144</ele>
        <time>2009-05-09T11:10:36Z</time>
      </trkpt>
      <trkpt lat="43.95746" lon="7.2435">
        <ele>1402.743</ele>
        <time>2009-05-09T11:10:42Z</time>
      </trkpt>
      <trkpt lat="43.95743" lon="7.24348">
        <ele>1402.306</ele>
        <time>2009-05-09T11:10:50Z</time>
      </trkpt>
      <trkpt lat="43.9574" lon="7.24347">
        <ele>1402.875</ele>
        <time>2009-05-09T11:10:59Z</time>
      </trkpt>
      <trkpt lat="43.95744" lon="7.24349">
        <ele>1402.972</ele>
        <time>2009-05-09T11:11:06Z</time>
      </trkpt>
      <trkpt lat="43.95746" lon="7.24354">
        <ele>1402.387</ele>
        <time>2009-05-09T11:11:14Z</time>
      </trkpt>
      <trkpt lat="43.95748" lon="7.24354">
        <ele>1401.6</ele>
        <time>2009-05-09T11:11:24Z</time>
      </trkpt>
      <trkpt lat="43.95751" lon="7.24358">
        <ele>1401.068</ele>
        <time>2009-05-09T11:12:02Z</time>
      </trkpt>
      <trkpt lat="43.95764" lon="7.24361">
        <ele>1401.57</ele>
        <time>2009-05-09T11:12:12Z</time>
      </trkpt>
      <trkpt lat="43.95767" lon="7.24362">
        <ele>1401.579</ele>
        <time>2009-05-09T11:12:15Z</time>
      </trkpt>
      <trkpt lat="43.95774" lon="7.24361">
        <ele>1402.296</ele>
        <time>2009-05-09T11:12:21Z</time>
      </trkpt>
      <trkpt lat="43.95781" lon="7.2436">
        <ele>1403.488</ele>
        <time>2009-05-09T11:12:26Z</time>
      </trkpt>
      <trkpt lat="43.95795" lon="7.2436">
        <ele>1402.787</ele>
        <time>2009-05-09T11:12:36Z</time>
      </trkpt>
      <trkpt lat="43.95805" lon="7.24361">
        <ele>1402.698</ele>
        <time>2009-05-09T11:12:43Z</time>
      </trkpt>
      <trkpt lat="43.9581" lon="7.24361">
        <ele>1401.844</ele>
        <time>2009-05-09T11:12:47Z</time>
      </trkpt>
      <trkpt lat="43.95821" lon="7.24368">
        <ele>1401.793</ele>
        <time>2009-05-09T11:12:54Z</time>
      </trkpt>
      <trkpt lat="43.95829" lon="7.24364">
        <ele>1402.315</ele>
        <time>2009-05-09T11:13:01Z</time>
      </trkpt>
      <trkpt lat="43.95833" lon="7.2436">
        <ele>1402.487</ele>
        <time>2009-05-09T11:13:05Z</time>
      </trkpt>
      <trkpt lat="43.95836" lon="7.24357">
        <ele>1402.571</ele>
        <time>2009-05-09T11:13:07Z</time>
      </trkpt>
      <trkpt lat="43.95843" lon="7.24353">
        <ele>1404.232</ele>
        <time>2009-05-09T11:13:15Z</time>
      </trkpt>
      <trkpt lat="43.95853" lon="7.24353">
        <ele>1404.089</ele>
        <time>2009-05-09T11:13:23Z</time>
      </trkpt>
      <trkpt lat="43.95858" lon="7.24351">
        <ele>1403.6</ele>
        <time>2009-05-09T11:13:26Z</time>
      </trkpt>
      <trkpt lat="43.95869" lon="7.24349">
        <ele>1401.443</ele>
        <time>2009-05-09T11:13:33Z</time>
      </trkpt>
      <trkpt lat="43.95878" lon="7.24346">
        <ele>1399.354</ele>
        <time>2009-05-09T11:13:37Z</time>
      </trkpt>
      <trkpt lat="43.95881" lon="7.24344">
        <ele>1399.15</ele>
        <time>2009-05-09T11:13:39Z</time>
      </trkpt>
      <trkpt lat="43.9588" lon="7.24338">
        <ele>1399.711</ele>
        <time>2009-05-09T11:13:45Z</time>
      </trkpt>
      <trkpt lat="43.95879" lon="7.24339">
        <ele>1400.059</ele>
        <time>2009-05-09T11:13:46Z</time>
      </trkpt>
      <trkpt lat="43.95876" lon="7.24343">
        <ele>1399.731</ele>
        <time>2009-05-09T11:13:52Z</time>
      </trkpt>
      <trkpt lat="43.95871" lon="7.24346">
        <ele>1399.705</ele>
        <time>2009-05-09T11:13:57Z</time>
      </trkpt>
      <trkpt lat="43.95861" lon="7.24348">
        <ele>1400.795</ele>
        <time>2009-05-09T11:14:06Z</time>
      </trkpt>
      <trkpt lat="43.95855" lon="7.24348">
        <ele>1401.498</ele>
        <time>2009-05-09T11:14:12Z</time>
      </trkpt>
      <trkpt lat="43.9585" lon="7.24348">
        <ele>1401.854</ele>
        <time>2009-05-09T11:14:17Z</time>
      </trkpt>
      <trkpt lat="43.9584" lon="7.24341">
        <ele>1404.159</ele>
        <time>2009-05-09T11:14:26Z</time>
      </trkpt>
      <trkpt lat="43.95834" lon="7.24338">
        <ele>1405.331</ele>
        <time>2009-05-09T11:14:33Z</time>
      </trkpt>
      <trkpt lat="43.95833" lon="7.24339">
        <ele>1406.173</ele>
        <time>2009-05-09T11:14:49Z</time>
      </trkpt>
      <trkpt lat="43.95829" lon="7.24342">
        <ele>1406.039</ele>
        <time>2009-05-09T11:14:54Z</time>
      </trkpt>
      <trkpt lat="43.95821" lon="7.24338">
        <ele>1406.587</ele>
        <time>2009-05-09T11:15:00Z</time>
      </trkpt>
      <trkpt lat="43.95817" lon="7.24337">
        <ele>1407.587</ele>
        <time>2009-05-09T11:15:07Z</time>
      </trkpt>
      <trkpt lat="43.95817" lon="7.24334">
        <ele>1407.733</ele>
        <time>2009-05-09T11:15:15Z</time>
      </trkpt>
      <trkpt lat="43.95816" lon="7.24332">
        <ele>1407.668</ele>
        <time>2009-05-09T11:15:39Z</time>
      </trkpt>
      <trkpt lat="43.95814" lon="7.24322">
        <ele>1407.993</ele>
        <time>2009-05-09T11:15:48Z</time>
      </trkpt>
      <trkpt lat="43.95815" lon="7.24318">
        <ele>1408.768</ele>
        <time>2009-05-09T11:15:56Z</time>
      </trkpt>
      <trkpt lat="43.95813" lon="7.24316">
        <ele>1409.233</ele>
        <time>2009-05-09T11:16:03Z</time>
      </trkpt>
      <trkpt lat="43.95809" lon="7.24316">
        <ele>1410.155</ele>
        <time>2009-05-09T11:16:08Z</time>
      </trkpt>
      <trkpt lat="43.95801" lon="7.24312">
        <ele>1410</ele>
        <time>2009-05-09T11:16:18Z</time>
      </trkpt>
      <trkpt lat="43.95787" lon="7.24308">
        <ele>1410.139</ele>
        <time>2009-05-09T11:16:26Z</time>
      </trkpt>
      <trkpt lat="43.95778" lon="7.24305">
        <ele>1409.449</ele>
        <time>2009-05-09T11:16:32Z</time>
      </trkpt>
      <trkpt lat="43.95767" lon="7.243">
        <ele>1411.283</ele>
        <time>2009-05-09T11:16:39Z</time>
      </trkpt>
      <trkpt lat="43.95752" lon="7.24294">
        <ele>1411.61</ele>
        <time>2009-05-09T11:16:45Z</time>
      </trkpt>
      <trkpt lat="43.9574" lon="7.24289">
        <ele>1411.517</ele>
        <time>2009-05-09T11:16:53Z</time>
      </trkpt>
      <trkpt lat="43.95738" lon="7.24288">
        <ele>1411.001</ele>
        <time>2009-05-09T11:16:54Z</time>
      </trkpt>
      <trkpt lat="43.9573" lon="7.24283">
        <ele>1412.451</ele>
        <time>2009-05-09T11:17:00Z</time>
      </trkpt>
      <trkpt lat="43.95719" lon="7.24284">
        <ele>1413.203</ele>
        <time>2009-05-09T11:17:06Z</time>
      </trkpt>
      <trkpt lat="43.95716" lon="7.24283">
        <ele>1413.735</ele>
        <time>2009-05-09T11:17:08Z</time>
      </trkpt>
      <trkpt lat="43.95709" lon="7.2428">
        <ele>1413.576</ele>
        <time>2009-05-09T11:17:12Z</time>
      </trkpt>
      <trkpt lat="43.95698" lon="7.24273">
        <ele>1412.796</ele>
        <time>2009-05-09T11:17:19Z</time>
      </trkpt>
      <trkpt lat="43.95689" lon="7.24272">
        <ele>1414.861</ele>
        <time>2009-05-09T11:17:26Z</time>
      </trkpt>
      <trkpt lat="43.95683" lon="7.24269">
        <ele>1414.76</ele>
        <time>2009-05-09T11:18:07Z</time>
      </trkpt>
      <trkpt lat="43.95669" lon="7.24261">
        <ele>1415.936</ele>
        <time>2009-05-09T11:18:15Z</time>
      </trkpt>
      <trkpt lat="43.95667" lon="7.24259">
        <ele>1416.234</ele>
        <time>2009-05-09T11:18:16Z</time>
      </trkpt>
      <trkpt lat="43.95657" lon="7.24252">
        <ele>1418.901</ele>
        <time>2009-05-09T11:18:23Z</time>
      </trkpt>
      <trkpt lat="43.95645" lon="7.24242">
        <ele>1421.156</ele>
        <time>2009-05-09T11:18:32Z</time>
      </trkpt>
      <trkpt lat="43.95642" lon="7.24239">
        <ele>1420.959</ele>
        <time>2009-05-09T11:18:34Z</time>
      </trkpt>
      <trkpt lat="43.95634" lon="7.24233">
        <ele>1422.417</ele>
        <time>2009-05-09T11:18:41Z</time>
      </trkpt>
      <trkpt lat="43.95625" lon="7.24224">
        <ele>1420.973</ele>
        <time>2009-05-09T11:18:48Z</time>
      </trkpt>
      <trkpt lat="43.9562" lon="7.2422">
        <ele>1420.346</ele>
        <time>2009-05-09T11:18:52Z</time>
      </trkpt>
      <trkpt lat="43.95613" lon="7.24212">
        <ele>1421.854</ele>
        <time>2009-05-09T11:18:58Z</time>
      </trkpt>
      <trkpt lat="43.95608" lon="7.24208">
        <ele>1423.39</ele>
        <time>2009-05-09T11:19:05Z</time>
      </trkpt>
      <trkpt lat="43.95605" lon="7.24206">
        <ele>1424.79</ele>
        <time>2009-05-09T11:19:14Z</time>
      </trkpt>
      <trkpt lat="43.95604" lon="7.24204">
        <ele>1425.232</ele>
        <time>2009-05-09T11:19:23Z</time>
      </trkpt>
      <trkpt lat="43.95603" lon="7.24203">
        <ele>1425.004</ele>
        <time>2009-05-09T11:19:25Z</time>
      </trkpt>
      <trkpt lat="43.95592" lon="7.24202">
        <ele>1423.593</ele>
        <time>2009-05-09T11:19:32Z</time>
      </trkpt>
      <trkpt lat="43.95588" lon="7.24201">
        <ele>1425.183</ele>
        <time>2009-05-09T11:19:35Z</time>
      </trkpt>
      <trkpt lat="43.95573" lon="7.24198">
        <ele>1428.86</ele>
        <time>2009-05-09T11:19:45Z</time>
      </trkpt>
      <trkpt lat="43.95566" lon="7.24196">
        <ele>1429.515</ele>
        <time>2009-05-09T11:19:50Z</time>
      </trkpt>
      <trkpt lat="43.95555" lon="7.24192">
        <ele>1430.384</ele>
        <time>2009-05-09T11:19:59Z</time>
      </trkpt>
      <trkpt lat="43.95544" lon="7.24188">
        <ele>1431.314</ele>
        <time>2009-05-09T11:20:07Z</time>
      </trkpt>
      <trkpt lat="43.95541" lon="7.24187">
        <ele>1431.205</ele>
        <time>2009-05-09T11:20:09Z</time>
      </trkpt>
      <trkpt lat="43.95535" lon="7.24186">
        <ele>1431.026</ele>
        <time>2009-05-09T11:20:13Z</time>
      </trkpt>
      <trkpt lat="43.95528" lon="7.24182">
        <ele>1432.742</ele>
        <time>2009-05-09T11:20:20Z</time>
      </trkpt>
      <trkpt lat="43.95516" lon="7.24183">
        <ele>1434.987</ele>
        <time>2009-05-09T11:20:28Z</time>
      </trkpt>
      <trkpt lat="43.95504" lon="7.24183">
        <ele>1438.311</ele>
        <time>2009-05-09T11:20:36Z</time>
      </trkpt>
      <trkpt lat="43.95496" lon="7.24187">
        <ele>1440.321</ele>
        <time>2009-05-09T11:20:43Z</time>
      </trkpt>
      <trkpt lat="43.95494" lon="7.24189">
        <ele>1441.381</ele>
        <time>2009-05-09T11:20:50Z</time>
      </trkpt>
      <trkpt lat="43.95492" lon="7.24193">
        <ele>1441.41</ele>
        <time>2009-05-09T11:21:02Z</time>
      </trkpt>
      <trkpt lat="43.95488" lon="7.24192">
        <ele>1441.708</ele>
        <time>2009-05-09T11:21:16Z</time>
      </trkpt>
      <trkpt lat="43.95482" lon="7.24192">
        <ele>1442.193</ele>
        <time>2009-05-09T11:21:38Z</time>
      </trkpt>
      <trkpt lat="43.9548" lon="7.24193">
        <ele>1441.457</ele>
        <time>2009-05-09T11:21:59Z</time>
      </trkpt>
      <trkpt lat="43.95477" lon="7.24198">
        <ele>1441.685</ele>
        <time>2009-05-09T11:22:08Z</time>
      </trkpt>
      <trkpt lat="43.95472" lon="7.24194">
        <ele>1441.947</ele>
        <time>2009-05-09T11:22:17Z</time>
      </trkpt>
      <trkpt lat="43.9547" lon="7.24191">
        <ele>1443.107</ele>
        <time>2009-05-09T11:22:26Z</time>
      </trkpt>
      <trkpt lat="43.95465" lon="7.24186">
        <ele>1443.845</ele>
        <time>2009-05-09T11:22:42Z</time>
      </trkpt>
      <trkpt lat="43.95461" lon="7.24186">
        <ele>1444.797</ele>
        <time>2009-05-09T11:22:58Z</time>
      </trkpt>
      <trkpt lat="43.95458" lon="7.24185">
        <ele>1444.69</ele>
        <time>2009-05-09T11:23:09Z</time>
      </trkpt>
      <trkpt lat="43.95455" lon="7.24191">
        <ele>1445.073</ele>
        <time>2009-05-09T11:23:36Z</time>
      </trkpt>
      <trkpt lat="43.95451" lon="7.24201">
        <ele>1445.491</ele>
        <time>2009-05-09T11:23:53Z</time>
      </trkpt>
      <trkpt lat="43.95449" lon="7.24204">
        <ele>1445.913</ele>
        <time>2009-05-09T11:24:11Z</time>
      </trkpt>
      <trkpt lat="43.95448" lon="7.24209">
        <ele>1446.858</ele>
        <time>2009-05-09T11:24:22Z</time>
      </trkpt>
      <trkpt lat="43.95427" lon="7.24223">
        <ele>1450.284</ele>
        <time>2009-05-09T11:25:07Z</time>
      </trkpt>
      <trkpt lat="43.95424" lon="7.24227">
        <ele>1452.838</ele>
        <time>2009-05-09T11:25:17Z</time>
      </trkpt>
      <trkpt lat="43.95423" lon="7.24228">
        <ele>1453.658</ele>
        <time>2009-05-09T11:25:25Z</time>
      </trkpt>
      <trkpt lat="43.95421" lon="7.24233">
        <ele>1456.608</ele>
        <time>2009-05-09T11:25:34Z</time>
      </trkpt>
      <trkpt lat="43.9542" lon="7.24237">
        <ele>1460.24</ele>
        <time>2009-05-09T11:25:42Z</time>
      </trkpt>
      <trkpt lat="43.95419" lon="7.24237">
        <ele>1462.015</ele>
        <time>2009-05-09T11:25:56Z</time>
      </trkpt>
      <trkpt lat="43.95417" lon="7.24237">
        <ele>1464.493</ele>
        <time>2009-05-09T11:26:03Z</time>
      </trkpt>
      <trkpt lat="43.95414" lon="7.24239">
        <ele>1466.396</ele>
        <time>2009-05-09T11:26:10Z</time>
      </trkpt>
      <trkpt lat="43.95416" lon="7.24244">
        <ele>1469.592</ele>
        <time>2009-05-09T11:26:20Z</time>
      </trkpt>
      <trkpt lat="43.95416" lon="7.24249">
        <ele>1470.834</ele>
        <time>2009-05-09T11:26:28Z</time>
      </trkpt>
      <trkpt lat="43.95413" lon="7.2425">
        <ele>1472.501</ele>
        <time>2009-05-09T11:26:35Z</time>
      </trkpt>
      <trkpt lat="43.9541" lon="7.24254">
        <ele>1476.377</ele>
        <time>2009-05-09T11:26:44Z</time>
      </trkpt>
      <trkpt lat="43.95406" lon="7.2426">
        <ele>1478.714</ele>
        <time>2009-05-09T11:26:54Z</time>
      </trkpt>
      <trkpt lat="43.95406" lon="7.24263">
        <ele>1482.289</ele>
        <time>2009-05-09T11:29:24Z</time>
      </trkpt>
      <trkpt lat="43.95391" lon="7.24261">
        <ele>1483.021</ele>
        <time>2009-05-09T11:29:31Z</time>
      </trkpt>
      <trkpt lat="43.95375" lon="7.24262">
        <ele>1483.446</ele>
        <time>2009-05-09T11:29:36Z</time>
      </trkpt>
      <trkpt lat="43.9536" lon="7.24263">
        <ele>1482.808</ele>
        <time>2009-05-09T11:29:42Z</time>
      </trkpt>
      <trkpt lat="43.95346" lon="7.24266">
        <ele>1482.433</ele>
        <time>2009-05-09T11:29:47Z</time>
      </trkpt>
      <trkpt lat="43.95336" lon="7.24266">
        <ele>1485.677</ele>
        <time>2009-05-09T11:29:53Z</time>
      </trkpt>
      <trkpt lat="43.95332" lon="7.24267">
        <ele>1486.273</ele>
        <time>2009-05-09T11:29:59Z</time>
      </trkpt>
      <trkpt lat="43.95324" lon="7.2427">
        <ele>1487.582</ele>
        <time>2009-05-09T11:30:11Z</time>
      </trkpt>
      <trkpt lat="43.95321" lon="7.24271">
        <ele>1487.452</ele>
        <time>2009-05-09T11:30:21Z</time>
      </trkpt>
      <trkpt lat="43.95314" lon="7.24267">
        <ele>1488.231</ele>
        <time>2009-05-09T11:30:30Z</time>
      </trkpt>
      <trkpt lat="43.9531" lon="7.24267">
        <ele>1489.366</ele>
        <time>2009-05-09T11:30:42Z</time>
      </trkpt>
      <trkpt lat="43.95307" lon="7.24267">
        <ele>1490.952</ele>
        <time>2009-05-09T11:30:55Z</time>
      </trkpt>
      <trkpt lat="43.95301" lon="7.2427">
        <ele>1491.414</ele>
        <time>2009-05-09T11:31:04Z</time>
      </trkpt>
      <trkpt lat="43.95299" lon="7.24271">
        <ele>1491.256</ele>
        <time>2009-05-09T11:31:14Z</time>
      </trkpt>
      <trkpt lat="43.95289" lon="7.24273">
        <ele>1492.542</ele>
        <time>2009-05-09T11:31:22Z</time>
      </trkpt>
      <trkpt lat="43.95286" lon="7.24272">
        <ele>1493.258</ele>
        <time>2009-05-09T11:31:25Z</time>
      </trkpt>
      <trkpt lat="43.95281" lon="7.24268">
        <ele>1493.944</ele>
        <time>2009-05-09T11:31:33Z</time>
      </trkpt>
      <trkpt lat="43.95274" lon="7.24264">
        <ele>1496.419</ele>
        <time>2009-05-09T11:31:47Z</time>
      </trkpt>
      <trkpt lat="43.9527" lon="7.24272">
        <ele>1498.832</ele>
        <time>2009-05-09T11:32:00Z</time>
      </trkpt>
      <trkpt lat="43.95266" lon="7.2428">
        <ele>1498.809</ele>
        <time>2009-05-09T11:32:12Z</time>
      </trkpt>
      <trkpt lat="43.95262" lon="7.24283">
        <ele>1499.302</ele>
        <time>2009-05-09T11:32:16Z</time>
      </trkpt>
      <trkpt lat="43.95248" lon="7.24295">
        <ele>1498.521</ele>
        <time>2009-05-09T11:32:23Z</time>
      </trkpt>
      <trkpt lat="43.95236" lon="7.24296">
        <ele>1495.281</ele>
        <time>2009-05-09T11:32:28Z</time>
      </trkpt>
      <trkpt lat="43.95226" lon="7.24298">
        <ele>1493.356</ele>
        <time>2009-05-09T11:32:33Z</time>
      </trkpt>
      <trkpt lat="43.95219" lon="7.24298">
        <ele>1492.268</ele>
        <time>2009-05-09T11:35:10Z</time>
      </trkpt>
      <trkpt lat="43.9522" lon="7.24297">
        <ele>1492.425</ele>
        <time>2009-05-09T11:35:17Z</time>
      </trkpt>
      <trkpt lat="43.95217" lon="7.24296">
        <ele>1492.627</ele>
        <time>2009-05-09T11:35:24Z</time>
      </trkpt>
      <trkpt lat="43.9521" lon="7.24301">
        <ele>1494.888</ele>
        <time>2009-05-09T11:35:39Z</time>
      </trkpt>
      <trkpt lat="43.95205" lon="7.24305">
        <ele>1499.626</ele>
        <time>2009-05-09T11:35:53Z</time>
      </trkpt>
      <trkpt lat="43.95202" lon="7.243">
        <ele>1501.568</ele>
        <time>2009-05-09T11:36:03Z</time>
      </trkpt>
      <trkpt lat="43.95205" lon="7.24296">
        <ele>1503.551</ele>
        <time>2009-05-09T11:36:20Z</time>
      </trkpt>
      <trkpt lat="43.95203" lon="7.24293">
        <ele>1501.064</ele>
        <time>2009-05-09T11:37:07Z</time>
      </trkpt>
      <trkpt lat="43.95195" lon="7.24293">
        <ele>1501.404</ele>
        <time>2009-05-09T11:38:54Z</time>
      </trkpt>
      <trkpt lat="43.95196" lon="7.243">
        <ele>1502.166</ele>
        <time>2009-05-09T11:39:08Z</time>
      </trkpt>
      <trkpt lat="43.95193" lon="7.24303">
        <ele>1502.504</ele>
        <time>2009-05-09T11:39:16Z</time>
      </trkpt>
      <trkpt lat="43.95194" lon="7.24301">
        <ele>1502.738</ele>
        <time>2009-05-09T11:39:25Z</time>
      </trkpt>
      <trkpt lat="43.95193" lon="7.24302">
        <ele>1502.928</ele>
        <time>2009-05-09T11:39:36Z</time>
      </trkpt>
      <trkpt lat="43.95189" lon="7.24307">
        <ele>1503.934</ele>
        <time>2009-05-09T11:39:57Z</time>
      </trkpt>
      <trkpt lat="43.95186" lon="7.2431">
        <ele>1504.5</ele>
        <time>2009-05-09T11:40:05Z</time>
      </trkpt>
      <trkpt lat="43.95184" lon="7.24312">
        <ele>1505.47</ele>
        <time>2009-05-09T11:40:12Z</time>
      </trkpt>
      <trkpt lat="43.95182" lon="7.24311">
        <ele>1505.634</ele>
        <time>2009-05-09T11:40:18Z</time>
      </trkpt>
      <trkpt lat="43.95179" lon="7.24312">
        <ele>1506.369</ele>
        <time>2009-05-09T11:40:26Z</time>
      </trkpt>
      <trkpt lat="43.95178" lon="7.24313">
        <ele>1507.285</ele>
        <time>2009-05-09T11:40:34Z</time>
      </trkpt>
      <trkpt lat="43.95176" lon="7.24315">
        <ele>1506.994</ele>
        <time>2009-05-09T11:40:41Z</time>
      </trkpt>
      <trkpt lat="43.9517" lon="7.2432">
        <ele>1507.631</ele>
        <time>2009-05-09T11:40:53Z</time>
      </trkpt>
      <trkpt lat="43.95168" lon="7.2432">
        <ele>1507.861</ele>
        <time>2009-05-09T11:41:02Z</time>
      </trkpt>
      <trkpt lat="43.95166" lon="7.24326">
        <ele>1508.487</ele>
        <time>2009-05-09T11:41:09Z</time>
      </trkpt>
      <trkpt lat="43.95164" lon="7.24328">
        <ele>1508.417</ele>
        <time>2009-05-09T11:41:17Z</time>
      </trkpt>
      <trkpt lat="43.95162" lon="7.24327">
        <ele>1508.42</ele>
        <time>2009-05-09T11:41:29Z</time>
      </trkpt>
      <trkpt lat="43.95163" lon="7.24326">
        <ele>1508.661</ele>
        <time>2009-05-09T11:41:37Z</time>
      </trkpt>
      <trkpt lat="43.95164" lon="7.24323">
        <ele>1508.965</ele>
        <time>2009-05-09T11:41:45Z</time>
      </trkpt>
      <trkpt lat="43.95162" lon="7.24324">
        <ele>1509.549</ele>
        <time>2009-05-09T11:41:53Z</time>
      </trkpt>
      <trkpt lat="43.95157" lon="7.24322">
        <ele>1509.788</ele>
        <time>2009-05-09T11:42:07Z</time>
      </trkpt>
      <trkpt lat="43.95152" lon="7.24323">
        <ele>1509.706</ele>
        <time>2009-05-09T11:42:14Z</time>
      </trkpt>
      <trkpt lat="43.9515" lon="7.24326">
        <ele>1509.564</ele>
        <time>2009-05-09T11:42:21Z</time>
      </trkpt>
      <trkpt lat="43.9515" lon="7.24329">
        <ele>1511.011</ele>
        <time>2009-05-09T11:42:30Z</time>
      </trkpt>
      <trkpt lat="43.95146" lon="7.24335">
        <ele>1511.589</ele>
        <time>2009-05-09T11:42:50Z</time>
      </trkpt>
      <trkpt lat="43.95143" lon="7.24337">
        <ele>1512.594</ele>
        <time>2009-05-09T11:43:03Z</time>
      </trkpt>
      <trkpt lat="43.95142" lon="7.24342">
        <ele>1513.992</ele>
        <time>2009-05-09T11:43:14Z</time>
      </trkpt>
      <trkpt lat="43.95144" lon="7.24346">
        <ele>1514.731</ele>
        <time>2009-05-09T11:43:23Z</time>
      </trkpt>
      <trkpt lat="43.95142" lon="7.2435">
        <ele>1516.962</ele>
        <time>2009-05-09T11:43:31Z</time>
      </trkpt>
      <trkpt lat="43.95148" lon="7.24357">
        <ele>1526.934</ele>
        <time>2009-05-09T11:43:44Z</time>
      </trkpt>
      <trkpt lat="43.95146" lon="7.2436">
        <ele>1529.577</ele>
        <time>2009-05-09T11:43:52Z</time>
      </trkpt>
      <trkpt lat="43.95141" lon="7.24363">
        <ele>1532.671</ele>
        <time>2009-05-09T11:44:02Z</time>
      </trkpt>
      <trkpt lat="43.95137" lon="7.24367">
        <ele>1534.906</ele>
        <time>2009-05-09T11:44:10Z</time>
      </trkpt>
      <trkpt lat="43.95132" lon="7.24371">
        <ele>1536.064</ele>
        <time>2009-05-09T11:44:20Z</time>
      </trkpt>
      <trkpt lat="43.9513" lon="7.24373">
        <ele>1536.256</ele>
        <time>2009-05-09T11:44:27Z</time>
      </trkpt>
      <trkpt lat="43.95127" lon="7.24373">
        <ele>1536.885</ele>
        <time>2009-05-09T11:44:31Z</time>
      </trkpt>
      <trkpt lat="43.95121" lon="7.2437">
        <ele>1538.225</ele>
        <time>2009-05-09T11:44:40Z</time>
      </trkpt>
      <trkpt lat="43.95118" lon="7.2437">
        <ele>1538.696</ele>
        <time>2009-05-09T11:44:46Z</time>
      </trkpt>
      <trkpt lat="43.95111" lon="7.24372">
        <ele>1539.567</ele>
        <time>2009-05-09T11:44:54Z</time>
      </trkpt>
      <trkpt lat="43.95105" lon="7.24378">
        <ele>1540.005</ele>
        <time>2009-05-09T11:45:02Z</time>
      </trkpt>
      <trkpt lat="43.951" lon="7.24379">
        <ele>1539.895</ele>
        <time>2009-05-09T11:45:10Z</time>
      </trkpt>
      <trkpt lat="43.95096" lon="7.24379">
        <ele>1542.134</ele>
        <time>2009-05-09T11:45:18Z</time>
      </trkpt>
      <trkpt lat="43.95091" lon="7.24378">
        <ele>1543.874</ele>
        <time>2009-05-09T11:45:25Z</time>
      </trkpt>
      <trkpt lat="43.95087" lon="7.24376">
        <ele>1545.722</ele>
        <time>2009-05-09T11:45:32Z</time>
      </trkpt>
      <trkpt lat="43.95082" lon="7.24373">
        <ele>1545.161</ele>
        <time>2009-05-09T11:45:40Z</time>
      </trkpt>
      <trkpt lat="43.95079" lon="7.24366">
        <ele>1546.158</ele>
        <time>2009-05-09T11:45:46Z</time>
      </trkpt>
      <trkpt lat="43.95079" lon="7.24365">
        <ele>1545.797</ele>
        <time>2009-05-09T11:45:56Z</time>
      </trkpt>
      <trkpt lat="43.9508" lon="7.24363">
        <ele>1545.312</ele>
        <time>2009-05-09T11:46:04Z</time>
      </trkpt>
      <trkpt lat="43.95078" lon="7.24361">
        <ele>1544.821</ele>
        <time>2009-05-09T11:46:13Z</time>
      </trkpt>
      <trkpt lat="43.95076" lon="7.24355">
        <ele>1543.835</ele>
        <time>2009-05-09T11:55:37Z</time>
      </trkpt>
      <trkpt lat="43.95073" lon="7.24352">
        <ele>1544.478</ele>
        <time>2009-05-09T11:55:44Z</time>
      </trkpt>
      <trkpt lat="43.9507" lon="7.24347">
        <ele>1544.392</ele>
        <time>2009-05-09T11:55:50Z</time>
      </trkpt>
      <trkpt lat="43.95068" lon="7.24342">
        <ele>1544.177</ele>
        <time>2009-05-09T11:55:53Z</time>
      </trkpt>
      <trkpt lat="43.95063" lon="7.24333">
        <ele>1544.446</ele>
        <time>2009-05-09T11:55:59Z</time>
      </trkpt>
      <trkpt lat="43.95061" lon="7.24323">
        <ele>1543.714</ele>
        <time>2009-05-09T11:56:07Z</time>
      </trkpt>
      <trkpt lat="43.95059" lon="7.24318">
        <ele>1543.534</ele>
        <time>2009-05-09T11:56:11Z</time>
      </trkpt>
      <trkpt lat="43.95055" lon="7.24311">
        <ele>1544.984</ele>
        <time>2009-05-09T11:56:18Z</time>
      </trkpt>
      <trkpt lat="43.95054" lon="7.24311">
        <ele>1545.664</ele>
        <time>2009-05-09T11:56:25Z</time>
      </trkpt>
      <trkpt lat="43.95053" lon="7.24311">
        <ele>1546.258</ele>
        <time>2009-05-09T11:56:32Z</time>
      </trkpt>
      <trkpt lat="43.95048" lon="7.24312">
        <ele>1546.054</ele>
        <time>2009-05-09T11:56:39Z</time>
      </trkpt>
      <trkpt lat="43.95046" lon="7.24315">
        <ele>1545.941</ele>
        <time>2009-05-09T11:56:45Z</time>
      </trkpt>
      <trkpt lat="43.95039" lon="7.24318">
        <ele>1546.189</ele>
        <time>2009-05-09T11:56:52Z</time>
      </trkpt>
      <trkpt lat="43.95036" lon="7.2432">
        <ele>1545.79</ele>
        <time>2009-05-09T11:57:01Z</time>
      </trkpt>
      <trkpt lat="43.95035" lon="7.24322">
        <ele>1546.164</ele>
        <time>2009-05-09T11:57:07Z</time>
      </trkpt>
      <trkpt lat="43.95024" lon="7.24326">
        <ele>1544.998</ele>
        <time>2009-05-09T11:57:12Z</time>
      </trkpt>
      <trkpt lat="43.95014" lon="7.24338">
        <ele>1541.807</ele>
        <time>2009-05-09T11:57:20Z</time>
      </trkpt>
      <trkpt lat="43.95001" lon="7.24347">
        <ele>1536.972</ele>
        <time>2009-05-09T11:57:27Z</time>
      </trkpt>
      <trkpt lat="43.94994" lon="7.24353">
        <ele>1534.246</ele>
        <time>2009-05-09T11:57:32Z</time>
      </trkpt>
      <trkpt lat="43.94989" lon="7.24355">
        <ele>1535.801</ele>
        <time>2009-05-09T11:57:42Z</time>
      </trkpt>
      <trkpt lat="43.94986" lon="7.24357">
        <ele>1535.827</ele>
        <time>2009-05-09T11:57:48Z</time>
      </trkpt>
      <trkpt lat="43.94975" lon="7.24354">
        <ele>1535.615</ele>
        <time>2009-05-09T11:57:55Z</time>
      </trkpt>
      <trkpt lat="43.94973" lon="7.24354">
        <ele>1535.67</ele>
        <time>2009-05-09T11:57:56Z</time>
      </trkpt>
      <trkpt lat="43.94962" lon="7.24345">
        <ele>1537.246</ele>
        <time>2009-05-09T11:58:02Z</time>
      </trkpt>
      <trkpt lat="43.94959" lon="7.24342">
        <ele>1537.668</ele>
        <time>2009-05-09T11:58:04Z</time>
      </trkpt>
      <trkpt lat="43.94949" lon="7.24336">
        <ele>1540.577</ele>
        <time>2009-05-09T11:58:09Z</time>
      </trkpt>
      <trkpt lat="43.94944" lon="7.24332">
        <ele>1539.739</ele>
        <time>2009-05-09T11:58:12Z</time>
      </trkpt>
      <trkpt lat="43.94936" lon="7.24336">
        <ele>1539.734</ele>
        <time>2009-05-09T11:58:18Z</time>
      </trkpt>
      <trkpt lat="43.94925" lon="7.2435">
        <ele>1535.915</ele>
        <time>2009-05-09T11:58:26Z</time>
      </trkpt>
      <trkpt lat="43.94916" lon="7.24364">
        <ele>1533.113</ele>
        <time>2009-05-09T11:58:32Z</time>
      </trkpt>
      <trkpt lat="43.94905" lon="7.24378">
        <ele>1529.126</ele>
        <time>2009-05-09T11:58:38Z</time>
      </trkpt>
      <trkpt lat="43.94899" lon="7.2439">
        <ele>1524.954</ele>
        <time>2009-05-09T11:58:43Z</time>
      </trkpt>
      <trkpt lat="43.94894" lon="7.24389">
        <ele>1526.558</ele>
        <time>2009-05-09T11:58:58Z</time>
      </trkpt>
      <trkpt lat="43.94892" lon="7.24387">
        <ele>1527.384</ele>
        <time>2009-05-09T11:59:04Z</time>
      </trkpt>
      <trkpt lat="43.94889" lon="7.24389">
        <ele>1527.291</ele>
        <time>2009-05-09T11:59:19Z</time>
      </trkpt>
      <trkpt lat="43.94884" lon="7.2439">
        <ele>1526.09</ele>
        <time>2009-05-09T11:59:33Z</time>
      </trkpt>
      <trkpt lat="43.9488" lon="7.24389">
        <ele>1526.174</ele>
        <time>2009-05-09T11:59:42Z</time>
      </trkpt>
      <trkpt lat="43.94874" lon="7.24389">
        <ele>1523.959</ele>
        <time>2009-05-09T11:59:52Z</time>
      </trkpt>
      <trkpt lat="43.94877" lon="7.24386">
        <ele>1520.99</ele>
        <time>2009-05-09T12:01:19Z</time>
      </trkpt>
      <trkpt lat="43.94879" lon="7.2438">
        <ele>1518.284</ele>
        <time>2009-05-09T12:01:26Z</time>
      </trkpt>
      <trkpt lat="43.94881" lon="7.24377">
        <ele>1516.34</ele>
        <time>2009-05-09T12:01:35Z</time>
      </trkpt>
      <trkpt lat="43.94881" lon="7.24375">
        <ele>1513.705</ele>
        <time>2009-05-09T12:01:52Z</time>
      </trkpt>
      <trkpt lat="43.94879" lon="7.24375">
        <ele>1513.169</ele>
        <time>2009-05-09T12:02:05Z</time>
      </trkpt>
      <trkpt lat="43.94879" lon="7.24373">
        <ele>1512.423</ele>
        <time>2009-05-09T12:02:13Z</time>
      </trkpt>
      <trkpt lat="43.94882" lon="7.2437">
        <ele>1510.468</ele>
        <time>2009-05-09T12:02:21Z</time>
      </trkpt>
      <trkpt lat="43.94882" lon="7.2437">
        <ele>1510.461</ele>
        <time>2009-05-09T12:02:33Z</time>
      </trkpt>
      <trkpt lat="43.94885" lon="7.24363">
        <ele>1511.608</ele>
        <time>2009-05-09T12:03:00Z</time>
      </trkpt>
      <trkpt lat="43.94887" lon="7.24359">
        <ele>1511.525</ele>
        <time>2009-05-09T12:03:06Z</time>
      </trkpt>
      <trkpt lat="43.94889" lon="7.24347">
        <ele>1511.403</ele>
        <time>2009-05-09T12:03:12Z</time>
      </trkpt>
      <trkpt lat="43.94891" lon="7.24346">
        <ele>1510.971</ele>
        <time>2009-05-09T12:03:19Z</time>
      </trkpt>
      <trkpt lat="43.94891" lon="7.24344">
        <ele>1510.912</ele>
        <time>2009-05-09T12:03:26Z</time>
      </trkpt>
      <trkpt lat="43.94892" lon="7.24336">
        <ele>1510.04</ele>
        <time>2009-05-09T12:03:39Z</time>
      </trkpt>
      <trkpt lat="43.94893" lon="7.24331">
        <ele>1509.886</ele>
        <time>2009-05-09T12:03:46Z</time>
      </trkpt>
      <trkpt lat="43.94891" lon="7.24334">
        <ele>1508.197</ele>
        <time>2009-05-09T12:03:54Z</time>
      </trkpt>
      <trkpt lat="43.94889" lon="7.24339">
        <ele>1505.544</ele>
        <time>2009-05-09T12:04:03Z</time>
      </trkpt>
      <trkpt lat="43.94884" lon="7.24344">
        <ele>1504.299</ele>
        <time>2009-05-09T12:04:22Z</time>
      </trkpt>
      <trkpt lat="43.94884" lon="7.24336">
        <ele>1504.689</ele>
        <time>2009-05-09T12:04:31Z</time>
      </trkpt>
      <trkpt lat="43.94884" lon="7.24332">
        <ele>1504.554</ele>
        <time>2009-05-09T12:04:35Z</time>
      </trkpt>
      <trkpt lat="43.94884" lon="7.24328">
        <ele>1504.846</ele>
        <time>2009-05-09T12:04:42Z</time>
      </trkpt>
      <trkpt lat="43.94882" lon="7.24326">
        <ele>1504.369</ele>
        <time>2009-05-09T12:04:48Z</time>
      </trkpt>
      <trkpt lat="43.94882" lon="7.24327">
        <ele>1503.565</ele>
        <time>2009-05-09T12:04:55Z</time>
      </trkpt>
      <trkpt lat="43.94873" lon="7.24338">
        <ele>1500.75</ele>
        <time>2009-05-09T12:05:02Z</time>
      </trkpt>
      <trkpt lat="43.94865" lon="7.24352">
        <ele>1499.725</ele>
        <time>2009-05-09T12:05:07Z</time>
      </trkpt>
      <trkpt lat="43.94854" lon="7.24363">
        <ele>1496.691</ele>
        <time>2009-05-09T12:05:13Z</time>
      </trkpt>
      <trkpt lat="43.94835" lon="7.24381">
        <ele>1491.206</ele>
        <time>2009-05-09T12:05:19Z</time>
      </trkpt>
      <trkpt lat="43.94828" lon="7.24391">
        <ele>1489.715</ele>
        <time>2009-05-09T12:05:24Z</time>
      </trkpt>
      <trkpt lat="43.94823" lon="7.24395">
        <ele>1487.686</ele>
        <time>2009-05-09T12:05:43Z</time>
      </trkpt>
      <trkpt lat="43.94823" lon="7.24395">
        <ele>1487.072</ele>
        <time>2009-05-09T12:05:51Z</time>
      </trkpt>
      <trkpt lat="43.94814" lon="7.24404">
        <ele>1484.398</ele>
        <time>2009-05-09T12:05:57Z</time>
      </trkpt>
      <trkpt lat="43.94803" lon="7.2441">
        <ele>1481.484</ele>
        <time>2009-05-09T12:06:02Z</time>
      </trkpt>
      <trkpt lat="43.948" lon="7.24411">
        <ele>1480.23</ele>
        <time>2009-05-09T12:06:06Z</time>
      </trkpt>
      <trkpt lat="43.94797" lon="7.24411">
        <ele>1480.548</ele>
        <time>2009-05-09T12:06:13Z</time>
      </trkpt>
      <trkpt lat="43.94793" lon="7.24416">
        <ele>1478.655</ele>
        <time>2009-05-09T12:06:23Z</time>
      </trkpt>
      <trkpt lat="43.94791" lon="7.24416">
        <ele>1476.483</ele>
        <time>2009-05-09T12:06:35Z</time>
      </trkpt>
      <trkpt lat="43.94791" lon="7.24415">
        <ele>1475.144</ele>
        <time>2009-05-09T12:06:47Z</time>
      </trkpt>
      <trkpt lat="43.9479" lon="7.2441">
        <ele>1475.094</ele>
        <time>2009-05-09T12:06:58Z</time>
      </trkpt>
      <trkpt lat="43.94792" lon="7.24405">
        <ele>1473.678</ele>
        <time>2009-05-09T12:07:08Z</time>
      </trkpt>
      <trkpt lat="43.94792" lon="7.24405">
        <ele>1473.64</ele>
        <time>2009-05-09T12:07:10Z</time>
      </trkpt>
      <trkpt lat="43.94796" lon="7.24398">
        <ele>1473.368</ele>
        <time>2009-05-09T12:07:14Z</time>
      </trkpt>
      <trkpt lat="43.94797" lon="7.24394">
        <ele>1472.847</ele>
        <time>2009-05-09T12:07:21Z</time>
      </trkpt>
      <trkpt lat="43.94798" lon="7.24391">
        <ele>1472.414</ele>
        <time>2009-05-09T12:07:23Z</time>
      </trkpt>
      <trkpt lat="43.94796" lon="7.24387">
        <ele>1471.4</ele>
        <time>2009-05-09T12:07:30Z</time>
      </trkpt>
      <trkpt lat="43.9479" lon="7.24388">
        <ele>1469.536</ele>
        <time>2009-05-09T12:07:40Z</time>
      </trkpt>
      <trkpt lat="43.94783" lon="7.2439">
        <ele>1468.049</ele>
        <time>2009-05-09T12:07:49Z</time>
      </trkpt>
      <trkpt lat="43.9478" lon="7.24394">
        <ele>1466.607</ele>
        <time>2009-05-09T12:07:58Z</time>
      </trkpt>
      <trkpt lat="43.94775" lon="7.24394">
        <ele>1466.08</ele>
        <time>2009-05-09T12:08:07Z</time>
      </trkpt>
      <trkpt lat="43.94776" lon="7.24394">
        <ele>1465.926</ele>
        <time>2009-05-09T12:08:12Z</time>
      </trkpt>
      <trkpt lat="43.94777" lon="7.24391">
        <ele>1466.025</ele>
        <time>2009-05-09T12:08:14Z</time>
      </trkpt>
      <trkpt lat="43.94781" lon="7.24378">
        <ele>1466.031</ele>
        <time>2009-05-09T12:08:21Z</time>
      </trkpt>
      <trkpt lat="43.94783" lon="7.24371">
        <ele>1465.718</ele>
        <time>2009-05-09T12:08:26Z</time>
      </trkpt>
      <trkpt lat="43.94786" lon="7.24366">
        <ele>1464.823</ele>
        <time>2009-05-09T12:08:34Z</time>
      </trkpt>
      <trkpt lat="43.94784" lon="7.2436">
        <ele>1463.966</ele>
        <time>2009-05-09T12:08:41Z</time>
      </trkpt>
      <trkpt lat="43.94779" lon="7.24361">
        <ele>1461.151</ele>
        <time>2009-05-09T12:08:50Z</time>
      </trkpt>
      <trkpt lat="43.94776" lon="7.24361">
        <ele>1458.694</ele>
        <time>2009-05-09T12:08:57Z</time>
      </trkpt>
      <trkpt lat="43.94774" lon="7.24363">
        <ele>1458.34</ele>
        <time>2009-05-09T12:09:00Z</time>
      </trkpt>
      <trkpt lat="43.94768" lon="7.24364">
        <ele>1455.569</ele>
        <time>2009-05-09T12:09:08Z</time>
      </trkpt>
      <trkpt lat="43.94764" lon="7.24362">
        <ele>1453.568</ele>
        <time>2009-05-09T12:09:16Z</time>
      </trkpt>
      <trkpt lat="43.94761" lon="7.24364">
        <ele>1451.814</ele>
        <time>2009-05-09T12:09:24Z</time>
      </trkpt>
      <trkpt lat="43.94758" lon="7.24365">
        <ele>1450.047</ele>
        <time>2009-05-09T12:09:32Z</time>
      </trkpt>
      <trkpt lat="43.94757" lon="7.24361">
        <ele>1449.345</ele>
        <time>2009-05-09T12:09:39Z</time>
      </trkpt>
      <trkpt lat="43.94757" lon="7.24358">
        <ele>1448.699</ele>
        <time>2009-05-09T12:09:45Z</time>
      </trkpt>
      <trkpt lat="43.94756" lon="7.24352">
        <ele>1446.381</ele>
        <time>2009-05-09T12:09:54Z</time>
      </trkpt>
      <trkpt lat="43.94756" lon="7.24346">
        <ele>1442.937</ele>
        <time>2009-05-09T12:10:04Z</time>
      </trkpt>
      <trkpt lat="43.94755" lon="7.24342">
        <ele>1441.847</ele>
        <time>2009-05-09T12:10:13Z</time>
      </trkpt>
      <trkpt lat="43.94751" lon="7.24342">
        <ele>1440.072</ele>
        <time>2009-05-09T12:10:21Z</time>
      </trkpt>
      <trkpt lat="43.94746" lon="7.24342">
        <ele>1437.509</ele>
        <time>2009-05-09T12:10:29Z</time>
      </trkpt>
      <trkpt lat="43.94743" lon="7.24345">
        <ele>1435.31</ele>
        <time>2009-05-09T12:10:37Z</time>
      </trkpt>
      <trkpt lat="43.94739" lon="7.24351">
        <ele>1433.256</ele>
        <time>2009-05-09T12:10:45Z</time>
      </trkpt>
      <trkpt lat="43.94735" lon="7.24351">
        <ele>1431.906</ele>
        <time>2009-05-09T12:10:53Z</time>
      </trkpt>
      <trkpt lat="43.94735" lon="7.24349">
        <ele>1430.977</ele>
        <time>2009-05-09T12:10:57Z</time>
      </trkpt>
      <trkpt lat="43.94734" lon="7.24346">
        <ele>1430.816</ele>
        <time>2009-05-09T12:10:59Z</time>
      </trkpt>
      <trkpt lat="43.94729" lon="7.24342">
        <ele>1430.051</ele>
        <time>2009-05-09T12:11:05Z</time>
      </trkpt>
      <trkpt lat="43.94728" lon="7.24349">
        <ele>1428.339</ele>
        <time>2009-05-09T12:11:12Z</time>
      </trkpt>
      <trkpt lat="43.94723" lon="7.24346">
        <ele>1426.638</ele>
        <time>2009-05-09T12:11:19Z</time>
      </trkpt>
      <trkpt lat="43.94721" lon="7.24345">
        <ele>1426.805</ele>
        <time>2009-05-09T12:11:22Z</time>
      </trkpt>
      <trkpt lat="43.94718" lon="7.24346">
        <ele>1425.117</ele>
        <time>2009-05-09T12:11:28Z</time>
      </trkpt>
      <trkpt lat="43.94717" lon="7.24343">
        <ele>1424.129</ele>
        <time>2009-05-09T12:11:35Z</time>
      </trkpt>
      <trkpt lat="43.94712" lon="7.24339">
        <ele>1422.27</ele>
        <time>2009-05-09T12:11:43Z</time>
      </trkpt>
      <trkpt lat="43.94709" lon="7.24338">
        <ele>1422.755</ele>
        <time>2009-05-09T12:11:49Z</time>
      </trkpt>
      <trkpt lat="43.9471" lon="7.24333">
        <ele>1423.658</ele>
        <time>2009-05-09T12:11:54Z</time>
      </trkpt>
      <trkpt lat="43.94708" lon="7.24331">
        <ele>1423.068</ele>
        <time>2009-05-09T12:12:02Z</time>
      </trkpt>
      <trkpt lat="43.94705" lon="7.24333">
        <ele>1421.97</ele>
        <time>2009-05-09T12:12:14Z</time>
      </trkpt>
      <trkpt lat="43.94703" lon="7.2433">
        <ele>1420.185</ele>
        <time>2009-05-09T12:12:20Z</time>
      </trkpt>
      <trkpt lat="43.94703" lon="7.24328">
        <ele>1419.617</ele>
        <time>2009-05-09T12:12:26Z</time>
      </trkpt>
      <trkpt lat="43.94701" lon="7.24327">
        <ele>1419.273</ele>
        <time>2009-05-09T12:12:31Z</time>
      </trkpt>
      <trkpt lat="43.94698" lon="7.24329">
        <ele>1419.354</ele>
        <time>2009-05-09T12:12:33Z</time>
      </trkpt>
      <trkpt lat="43.94698" lon="7.24317">
        <ele>1419.076</ele>
        <time>2009-05-09T12:12:40Z</time>
      </trkpt>
      <trkpt lat="43.94699" lon="7.24313">
        <ele>1417.856</ele>
        <time>2009-05-09T12:12:42Z</time>
      </trkpt>
      <trkpt lat="43.94692" lon="7.2431">
        <ele>1415.58</ele>
        <time>2009-05-09T12:12:47Z</time>
      </trkpt>
      <trkpt lat="43.94687" lon="7.24312">
        <ele>1412.8</ele>
        <time>2009-05-09T12:12:53Z</time>
      </trkpt>
      <trkpt lat="43.94685" lon="7.2431">
        <ele>1408.946</ele>
        <time>2009-05-09T12:13:01Z</time>
      </trkpt>
      <trkpt lat="43.94682" lon="7.24312">
        <ele>1407.358</ele>
        <time>2009-05-09T12:13:08Z</time>
      </trkpt>
      <trkpt lat="43.94678" lon="7.2431">
        <ele>1406.619</ele>
        <time>2009-05-09T12:13:14Z</time>
      </trkpt>
      <trkpt lat="43.94673" lon="7.24308">
        <ele>1404.364</ele>
        <time>2009-05-09T12:13:21Z</time>
      </trkpt>
      <trkpt lat="43.9467" lon="7.24305">
        <ele>1403.237</ele>
        <time>2009-05-09T12:13:31Z</time>
      </trkpt>
      <trkpt lat="43.94669" lon="7.24303">
        <ele>1403.296</ele>
        <time>2009-05-09T12:13:36Z</time>
      </trkpt>
      <trkpt lat="43.94659" lon="7.24295">
        <ele>1400.305</ele>
        <time>2009-05-09T12:13:43Z</time>
      </trkpt>
      <trkpt lat="43.94657" lon="7.24291">
        <ele>1399.385</ele>
        <time>2009-05-09T12:13:45Z</time>
      </trkpt>
      <trkpt lat="43.94655" lon="7.24281">
        <ele>1396.233</ele>
        <time>2009-05-09T12:13:50Z</time>
      </trkpt>
      <trkpt lat="43.94653" lon="7.24274">
        <ele>1395.234</ele>
        <time>2009-05-09T12:13:52Z</time>
      </trkpt>
      <trkpt lat="43.94634" lon="7.24255">
        <ele>1389.248</ele>
        <time>2009-05-09T12:13:58Z</time>
      </trkpt>
      <trkpt lat="43.94634" lon="7.24255">
        <ele>1388.349</ele>
        <time>2009-05-09T12:14:04Z</time>
      </trkpt>
      <trkpt lat="43.94631" lon="7.2425">
        <ele>1388.189</ele>
        <time>2009-05-09T12:14:13Z</time>
      </trkpt>
      <trkpt lat="43.94629" lon="7.24241">
        <ele>1388.544</ele>
        <time>2009-05-09T12:14:19Z</time>
      </trkpt>
      <trkpt lat="43.94628" lon="7.2424">
        <ele>1388.966</ele>
        <time>2009-05-09T12:14:30Z</time>
      </trkpt>
      <trkpt lat="43.94623" lon="7.2423">
        <ele>1388.66</ele>
        <time>2009-05-09T12:14:36Z</time>
      </trkpt>
      <trkpt lat="43.94615" lon="7.24211">
        <ele>1389.191</ele>
        <time>2009-05-09T12:14:42Z</time>
      </trkpt>
      <trkpt lat="43.94614" lon="7.24208">
        <ele>1389.61</ele>
        <time>2009-05-09T12:14:46Z</time>
      </trkpt>
      <trkpt lat="43.94611" lon="7.24206">
        <ele>1388.547</ele>
        <time>2009-05-09T12:14:53Z</time>
      </trkpt>
      <trkpt lat="43.94608" lon="7.24203">
        <ele>1388.377</ele>
        <time>2009-05-09T12:14:58Z</time>
      </trkpt>
      <trkpt lat="43.94601" lon="7.2419">
        <ele>1387.751</ele>
        <time>2009-05-09T12:15:03Z</time>
      </trkpt>
      <trkpt lat="43.94586" lon="7.24163">
        <ele>1386.897</ele>
        <time>2009-05-09T12:15:10Z</time>
      </trkpt>
      <trkpt lat="43.94584" lon="7.24159">
        <ele>1386.935</ele>
        <time>2009-05-09T12:15:11Z</time>
      </trkpt>
      <trkpt lat="43.94569" lon="7.2413">
        <ele>1386.763</ele>
        <time>2009-05-09T12:15:17Z</time>
      </trkpt>
      <trkpt lat="43.94568" lon="7.24127">
        <ele>1386.875</ele>
        <time>2009-05-09T12:15:18Z</time>
      </trkpt>
      <trkpt lat="43.94559" lon="7.2411">
        <ele>1387.028</ele>
        <time>2009-05-09T12:15:26Z</time>
      </trkpt>
      <trkpt lat="43.94557" lon="7.24092">
        <ele>1386.295</ele>
        <time>2009-05-09T12:15:32Z</time>
      </trkpt>
      <trkpt lat="43.94561" lon="7.24075">
        <ele>1385.558</ele>
        <time>2009-05-09T12:15:39Z</time>
      </trkpt>
      <trkpt lat="43.94558" lon="7.24051">
        <ele>1383.512</ele>
        <time>2009-05-09T12:15:46Z</time>
      </trkpt>
      <trkpt lat="43.9456" lon="7.24043">
        <ele>1382.823</ele>
        <time>2009-05-09T12:15:49Z</time>
      </trkpt>
      <trkpt lat="43.94559" lon="7.24023">
        <ele>1380.528</ele>
        <time>2009-05-09T12:15:56Z</time>
      </trkpt>
      <trkpt lat="43.94553" lon="7.23995">
        <ele>1378.023</ele>
        <time>2009-05-09T12:16:02Z</time>
      </trkpt>
      <trkpt lat="43.94549" lon="7.23987">
        <ele>1376.863</ele>
        <time>2009-05-09T12:16:05Z</time>
      </trkpt>
      <trkpt lat="43.94548" lon="7.23978">
        <ele>1376.553</ele>
        <time>2009-05-09T12:16:11Z</time>
      </trkpt>
      <trkpt lat="43.94545" lon="7.23973">
        <ele>1373.61</ele>
        <time>2009-05-09T12:16:29Z</time>
      </trkpt>
      <trkpt lat="43.94537" lon="7.23975">
        <ele>1372.888</ele>
        <time>2009-05-09T12:16:33Z</time>
      </trkpt>
      <trkpt lat="43.94519" lon="7.23983">
        <ele>1370.792</ele>
        <time>2009-05-09T12:16:39Z</time>
      </trkpt>
      <trkpt lat="43.94507" lon="7.23989">
        <ele>1368.939</ele>
        <time>2009-05-09T12:16:42Z</time>
      </trkpt>
      <trkpt lat="43.94483" lon="7.24002">
        <ele>1366.054</ele>
        <time>2009-05-09T12:16:47Z</time>
      </trkpt>
      <trkpt lat="43.94472" lon="7.24006">
        <ele>1364.426</ele>
        <time>2009-05-09T12:16:49Z</time>
      </trkpt>
      <trkpt lat="43.94441" lon="7.2401">
        <ele>1362.385</ele>
        <time>2009-05-09T12:16:55Z</time>
      </trkpt>
      <trkpt lat="43.94431" lon="7.2401">
        <ele>1363.287</ele>
        <time>2009-05-09T12:17:01Z</time>
      </trkpt>
      <trkpt lat="43.9442" lon="7.24007">
        <ele>1362.861</ele>
        <time>2009-05-09T12:17:05Z</time>
      </trkpt>
      <trkpt lat="43.94408" lon="7.24007">
        <ele>1361.823</ele>
        <time>2009-05-09T12:17:09Z</time>
      </trkpt>
      <trkpt lat="43.94391" lon="7.24008">
        <ele>1359.93</ele>
        <time>2009-05-09T12:17:13Z</time>
      </trkpt>
      <trkpt lat="43.94361" lon="7.24005">
        <ele>1356.654</ele>
        <time>2009-05-09T12:17:20Z</time>
      </trkpt>
      <trkpt lat="43.94339" lon="7.24005">
        <ele>1355.204</ele>
        <time>2009-05-09T12:17:25Z</time>
      </trkpt>
      <trkpt lat="43.94325" lon="7.24008">
        <ele>1354.892</ele>
        <time>2009-05-09T12:17:28Z</time>
      </trkpt>
      <trkpt lat="43.94316" lon="7.24006">
        <ele>1354.415</ele>
        <time>2009-05-09T12:17:30Z</time>
      </trkpt>
      <trkpt lat="43.94298" lon="7.24">
        <ele>1353.789</ele>
        <time>2009-05-09T12:17:34Z</time>
      </trkpt>
      <trkpt lat="43.94261" lon="7.23989">
        <ele>1350.727</ele>
        <time>2009-05-09T12:17:41Z</time>
      </trkpt>
      <trkpt lat="43.94241" lon="7.23972">
        <ele>1350.182</ele>
        <time>2009-05-09T12:17:45Z</time>
      </trkpt>
      <trkpt lat="43.94232" lon="7.23933">
        <ele>1348.042</ele>
        <time>2009-05-09T12:17:50Z</time>
      </trkpt>
      <trkpt lat="43.94231" lon="7.2389">
        <ele>1347.442</ele>
        <time>2009-05-09T12:17:56Z</time>
      </trkpt>
      <trkpt lat="43.94232" lon="7.23889">
        <ele>1347.63</ele>
        <time>2009-05-09T12:18:04Z</time>
      </trkpt>
      <trkpt lat="43.94231" lon="7.23889">
        <ele>1347.912</ele>
        <time>2009-05-09T12:18:50Z</time>
      </trkpt>
      <trkpt lat="43.94237" lon="7.23866">
        <ele>1348.28</ele>
        <time>2009-05-09T12:18:56Z</time>
      </trkpt>
      <trkpt lat="43.94239" lon="7.2386">
        <ele>1347.802</ele>
        <time>2009-05-09T12:18:57Z</time>
      </trkpt>
      <trkpt lat="43.94245" lon="7.23828">
        <ele>1348.199</ele>
        <time>2009-05-09T12:19:01Z</time>
      </trkpt>
      <trkpt lat="43.94261" lon="7.23764">
        <ele>1343.677</ele>
        <time>2009-05-09T12:19:08Z</time>
      </trkpt>
      <trkpt lat="43.94272" lon="7.2374">
        <ele>1341.716</ele>
        <time>2009-05-09T12:19:11Z</time>
      </trkpt>
      <trkpt lat="43.94278" lon="7.23711">
        <ele>1337.82</ele>
        <time>2009-05-09T12:19:16Z</time>
      </trkpt>
      <trkpt lat="43.94268" lon="7.23713">
        <ele>1336.155</ele>
        <time>2009-05-09T12:19:20Z</time>
      </trkpt>
      <trkpt lat="43.94259" lon="7.23726">
        <ele>1333.392</ele>
        <time>2009-05-09T12:19:23Z</time>
      </trkpt>
      <trkpt lat="43.94252" lon="7.23746">
        <ele>1331.67</ele>
        <time>2009-05-09T12:19:26Z</time>
      </trkpt>
      <trkpt lat="43.94246" lon="7.23762">
        <ele>1326.877</ele>
        <time>2009-05-09T12:19:31Z</time>
      </trkpt>
      <trkpt lat="43.94245" lon="7.23764">
        <ele>1325.355</ele>
        <time>2009-05-09T12:20:09Z</time>
      </trkpt>
      <trkpt lat="43.94232" lon="7.2379">
        <ele>1322.728</ele>
        <time>2009-05-09T12:20:15Z</time>
      </trkpt>
      <trkpt lat="43.94229" lon="7.23797">
        <ele>1321.68</ele>
        <time>2009-05-09T12:20:16Z</time>
      </trkpt>
      <trkpt lat="43.94217" lon="7.23836">
        <ele>1315.703</ele>
        <time>2009-05-09T12:20:22Z</time>
      </trkpt>
      <trkpt lat="43.94197" lon="7.23861">
        <ele>1313.372</ele>
        <time>2009-05-09T12:20:27Z</time>
      </trkpt>
      <trkpt lat="43.9417" lon="7.23862">
        <ele>1311.98</ele>
        <time>2009-05-09T12:20:32Z</time>
      </trkpt>
      <trkpt lat="43.94141" lon="7.23858">
        <ele>1309.673</ele>
        <time>2009-05-09T12:20:37Z</time>
      </trkpt>
      <trkpt lat="43.94115" lon="7.23849">
        <ele>1307.425</ele>
        <time>2009-05-09T12:20:41Z</time>
      </trkpt>
      <trkpt lat="43.94098" lon="7.2384">
        <ele>1305.437</ele>
        <time>2009-05-09T12:20:44Z</time>
      </trkpt>
      <trkpt lat="43.94082" lon="7.23841">
        <ele>1300.276</ele>
        <time>2009-05-09T12:20:48Z</time>
      </trkpt>
      <trkpt lat="43.94077" lon="7.23863">
        <ele>1295.753</ele>
        <time>2009-05-09T12:20:53Z</time>
      </trkpt>
      <trkpt lat="43.9408" lon="7.23874">
        <ele>1295.322</ele>
        <time>2009-05-09T12:20:56Z</time>
      </trkpt>
      <trkpt lat="43.94077" lon="7.23903">
        <ele>1291.007</ele>
        <time>2009-05-09T12:21:02Z</time>
      </trkpt>
      <trkpt lat="43.94074" lon="7.23907">
        <ele>1289.945</ele>
        <time>2009-05-09T12:21:03Z</time>
      </trkpt>
      <trkpt lat="43.94063" lon="7.23919">
        <ele>1289.145</ele>
        <time>2009-05-09T12:21:06Z</time>
      </trkpt>
      <trkpt lat="43.94051" lon="7.23931">
        <ele>1286.526</ele>
        <time>2009-05-09T12:21:09Z</time>
      </trkpt>
      <trkpt lat="43.94028" lon="7.23947">
        <ele>1283.267</ele>
        <time>2009-05-09T12:21:15Z</time>
      </trkpt>
      <trkpt lat="43.93992" lon="7.23941">
        <ele>1280.819</ele>
        <time>2009-05-09T12:21:22Z</time>
      </trkpt>
      <trkpt lat="43.93977" lon="7.23947">
        <ele>1279.365</ele>
        <time>2009-05-09T12:21:26Z</time>
      </trkpt>
      <trkpt lat="43.93968" lon="7.23952">
        <ele>1280.391</ele>
        <time>2009-05-09T12:21:28Z</time>
      </trkpt>
      <trkpt lat="43.93941" lon="7.23964">
        <ele>1278.673</ele>
        <time>2009-05-09T12:21:35Z</time>
      </trkpt>
      <trkpt lat="43.93916" lon="7.23974">
        <ele>1278.177</ele>
        <time>2009-05-09T12:21:42Z</time>
      </trkpt>
      <trkpt lat="43.93903" lon="7.23981">
        <ele>1277.873</ele>
        <time>2009-05-09T12:21:46Z</time>
      </trkpt>
      <trkpt lat="43.93881" lon="7.2399">
        <ele>1277.99</ele>
        <time>2009-05-09T12:21:52Z</time>
      </trkpt>
      <trkpt lat="43.93875" lon="7.23991">
        <ele>1278.957</ele>
        <time>2009-05-09T12:21:54Z</time>
      </trkpt>
      <trkpt lat="43.93864" lon="7.23985">
        <ele>1278.699</ele>
        <time>2009-05-09T12:21:57Z</time>
      </trkpt>
      <trkpt lat="43.93853" lon="7.23974">
        <ele>1277.925</ele>
        <time>2009-05-09T12:22:00Z</time>
      </trkpt>
      <trkpt lat="43.93837" lon="7.23983">
        <ele>1273.945</ele>
        <time>2009-05-09T12:22:05Z</time>
      </trkpt>
      <trkpt lat="43.93821" lon="7.23978">
        <ele>1271.181</ele>
        <time>2009-05-09T12:22:10Z</time>
      </trkpt>
      <trkpt lat="43.93811" lon="7.23972">
        <ele>1269.493</ele>
        <time>2009-05-09T12:22:13Z</time>
      </trkpt>
      <trkpt lat="43.93801" lon="7.23983">
        <ele>1265.859</ele>
        <time>2009-05-09T12:22:18Z</time>
      </trkpt>
      <trkpt lat="43.93793" lon="7.24003">
        <ele>1262.398</ele>
        <time>2009-05-09T12:22:22Z</time>
      </trkpt>
      <trkpt lat="43.93793" lon="7.2403">
        <ele>1257.875</ele>
        <time>2009-05-09T12:22:27Z</time>
      </trkpt>
      <trkpt lat="43.93786" lon="7.24045">
        <ele>1255.125</ele>
        <time>2009-05-09T12:22:30Z</time>
      </trkpt>
      <trkpt lat="43.93794" lon="7.24063">
        <ele>1253.063</ele>
        <time>2009-05-09T12:22:34Z</time>
      </trkpt>
      <trkpt lat="43.93801" lon="7.24095">
        <ele>1250.164</ele>
        <time>2009-05-09T12:22:40Z</time>
      </trkpt>
      <trkpt lat="43.93804" lon="7.24116">
        <ele>1247.364</ele>
        <time>2009-05-09T12:22:46Z</time>
      </trkpt>
      <trkpt lat="43.93803" lon="7.24118">
        <ele>1246.87</ele>
        <time>2009-05-09T12:23:07Z</time>
      </trkpt>
      <trkpt lat="43.93804" lon="7.24137">
        <ele>1246.616</ele>
        <time>2009-05-09T12:23:12Z</time>
      </trkpt>
      <trkpt lat="43.93802" lon="7.24143">
        <ele>1246.513</ele>
        <time>2009-05-09T12:23:13Z</time>
      </trkpt>
      <trkpt lat="43.93789" lon="7.24163">
        <ele>1245.848</ele>
        <time>2009-05-09T12:23:19Z</time>
      </trkpt>
      <trkpt lat="43.93785" lon="7.24172">
        <ele>1244.671</ele>
        <time>2009-05-09T12:23:21Z</time>
      </trkpt>
      <trkpt lat="43.9378" lon="7.242">
        <ele>1238.414</ele>
        <time>2009-05-09T12:23:27Z</time>
      </trkpt>
      <trkpt lat="43.93768" lon="7.24218">
        <ele>1234.435</ele>
        <time>2009-05-09T12:23:32Z</time>
      </trkpt>
      <trkpt lat="43.93762" lon="7.24225">
        <ele>1233.298</ele>
        <time>2009-05-09T12:23:34Z</time>
      </trkpt>
      <trkpt lat="43.9373" lon="7.24234">
        <ele>1230.656</ele>
        <time>2009-05-09T12:23:42Z</time>
      </trkpt>
      <trkpt lat="43.93724" lon="7.24238">
        <ele>1229.731</ele>
        <time>2009-05-09T12:23:44Z</time>
      </trkpt>
      <trkpt lat="43.93714" lon="7.24247">
        <ele>1230.08</ele>
        <time>2009-05-09T12:23:47Z</time>
      </trkpt>
      <trkpt lat="43.93708" lon="7.24268">
        <ele>1230.733</ele>
        <time>2009-05-09T12:23:51Z</time>
      </trkpt>
      <trkpt lat="43.93706" lon="7.24273">
        <ele>1230.051</ele>
        <time>2009-05-09T12:23:56Z</time>
      </trkpt>
      <trkpt lat="43.93694" lon="7.24279">
        <ele>1229.636</ele>
        <time>2009-05-09T12:24:53Z</time>
      </trkpt>
      <trkpt lat="43.93681" lon="7.24287">
        <ele>1229.109</ele>
        <time>2009-05-09T12:24:57Z</time>
      </trkpt>
      <trkpt lat="43.93671" lon="7.24307">
        <ele>1228.461</ele>
        <time>2009-05-09T12:25:01Z</time>
      </trkpt>
      <trkpt lat="43.93651" lon="7.2432">
        <ele>1227.62</ele>
        <time>2009-05-09T12:25:06Z</time>
      </trkpt>
      <trkpt lat="43.93643" lon="7.24323">
        <ele>1228.695</ele>
        <time>2009-05-09T12:25:08Z</time>
      </trkpt>
      <trkpt lat="43.93627" lon="7.24332">
        <ele>1226.876</ele>
        <time>2009-05-09T12:25:13Z</time>
      </trkpt>
      <trkpt lat="43.93612" lon="7.24334">
        <ele>1226.794</ele>
        <time>2009-05-09T12:25:16Z</time>
      </trkpt>
      <trkpt lat="43.93593" lon="7.24326">
        <ele>1228.089</ele>
        <time>2009-05-09T12:25:20Z</time>
      </trkpt>
      <trkpt lat="43.93577" lon="7.24335">
        <ele>1228.668</ele>
        <time>2009-05-09T12:25:24Z</time>
      </trkpt>
      <trkpt lat="43.93563" lon="7.2435">
        <ele>1228.063</ele>
        <time>2009-05-09T12:25:29Z</time>
      </trkpt>
      <trkpt lat="43.9354" lon="7.24344">
        <ele>1227.875</ele>
        <time>2009-05-09T12:25:36Z</time>
      </trkpt>
      <trkpt lat="43.93517" lon="7.24344">
        <ele>1226.161</ele>
        <time>2009-05-09T12:25:42Z</time>
      </trkpt>
      <trkpt lat="43.93513" lon="7.24343">
        <ele>1227.335</ele>
        <time>2009-05-09T12:25:43Z</time>
      </trkpt>
      <trkpt lat="43.93506" lon="7.24341">
        <ele>1226.725</ele>
        <time>2009-05-09T12:25:45Z</time>
      </trkpt>
      <trkpt lat="43.93494" lon="7.24335">
        <ele>1226.851</ele>
        <time>2009-05-09T12:25:48Z</time>
      </trkpt>
      <trkpt lat="43.93458" lon="7.24312">
        <ele>1221.897</ele>
        <time>2009-05-09T12:25:56Z</time>
      </trkpt>
      <trkpt lat="43.93453" lon="7.24309">
        <ele>1221.387</ele>
        <time>2009-05-09T12:25:57Z</time>
      </trkpt>
      <trkpt lat="43.93428" lon="7.24302">
        <ele>1217.903</ele>
        <time>2009-05-09T12:26:03Z</time>
      </trkpt>
      <trkpt lat="43.93417" lon="7.24313">
        <ele>1217.952</ele>
        <time>2009-05-09T12:26:08Z</time>
      </trkpt>
      <trkpt lat="43.93415" lon="7.24316">
        <ele>1218.629</ele>
        <time>2009-05-09T12:26:10Z</time>
      </trkpt>
      <trkpt lat="43.9341" lon="7.24319">
        <ele>1216.492</ele>
        <time>2009-05-09T12:26:16Z</time>
      </trkpt>
      <trkpt lat="43.93402" lon="7.24324">
        <ele>1213.629</ele>
        <time>2009-05-09T12:26:48Z</time>
      </trkpt>
      <trkpt lat="43.93383" lon="7.24339">
        <ele>1209.703</ele>
        <time>2009-05-09T12:26:52Z</time>
      </trkpt>
      <trkpt lat="43.93365" lon="7.24356">
        <ele>1207.062</ele>
        <time>2009-05-09T12:26:57Z</time>
      </trkpt>
      <trkpt lat="43.93353" lon="7.24365">
        <ele>1202.648</ele>
        <time>2009-05-09T12:27:02Z</time>
      </trkpt>
      <trkpt lat="43.93337" lon="7.2437">
        <ele>1200.234</ele>
        <time>2009-05-09T12:27:08Z</time>
      </trkpt>
      <trkpt lat="43.93335" lon="7.24369">
        <ele>1199.955</ele>
        <time>2009-05-09T12:27:09Z</time>
      </trkpt>
      <trkpt lat="43.93327" lon="7.24371">
        <ele>1197.564</ele>
        <time>2009-05-09T12:27:13Z</time>
      </trkpt>
      <trkpt lat="43.93312" lon="7.24382">
        <ele>1194.535</ele>
        <time>2009-05-09T12:27:18Z</time>
      </trkpt>
      <trkpt lat="43.93293" lon="7.24389">
        <ele>1188.648</ele>
        <time>2009-05-09T12:27:24Z</time>
      </trkpt>
      <trkpt lat="43.9329" lon="7.24389">
        <ele>1188.368</ele>
        <time>2009-05-09T12:27:28Z</time>
      </trkpt>
      <trkpt lat="43.93281" lon="7.24393">
        <ele>1186.298</ele>
        <time>2009-05-09T12:27:35Z</time>
      </trkpt>
      <trkpt lat="43.93268" lon="7.24404">
        <ele>1181.882</ele>
        <time>2009-05-09T12:27:40Z</time>
      </trkpt>
      <trkpt lat="43.93249" lon="7.2442">
        <ele>1174.415</ele>
        <time>2009-05-09T12:27:46Z</time>
      </trkpt>
      <trkpt lat="43.93235" lon="7.24435">
        <ele>1167.742</ele>
        <time>2009-05-09T12:27:52Z</time>
      </trkpt>
      <trkpt lat="43.93231" lon="7.24437">
        <ele>1166.864</ele>
        <time>2009-05-09T12:27:53Z</time>
      </trkpt>
      <trkpt lat="43.93218" lon="7.24448">
        <ele>1163.147</ele>
        <time>2009-05-09T12:27:58Z</time>
      </trkpt>
      <trkpt lat="43.93215" lon="7.24448">
        <ele>1162.534</ele>
        <time>2009-05-09T12:29:23Z</time>
      </trkpt>
      <trkpt lat="43.93205" lon="7.24465">
        <ele>1160.954</ele>
        <time>2009-05-09T12:29:27Z</time>
      </trkpt>
      <trkpt lat="43.93188" lon="7.24495">
        <ele>1158.122</ele>
        <time>2009-05-09T12:29:32Z</time>
      </trkpt>
      <trkpt lat="43.93186" lon="7.24502">
        <ele>1157.56</ele>
        <time>2009-05-09T12:29:34Z</time>
      </trkpt>
      <trkpt lat="43.93176" lon="7.24517">
        <ele>1155.191</ele>
        <time>2009-05-09T12:29:38Z</time>
      </trkpt>
      <trkpt lat="43.93158" lon="7.24534">
        <ele>1152.235</ele>
        <time>2009-05-09T12:29:44Z</time>
      </trkpt>
      <trkpt lat="43.93145" lon="7.24542">
        <ele>1147.215</ele>
        <time>2009-05-09T12:29:50Z</time>
      </trkpt>
      <trkpt lat="43.93132" lon="7.24534">
        <ele>1145.968</ele>
        <time>2009-05-09T12:29:56Z</time>
      </trkpt>
      <trkpt lat="43.93131" lon="7.24531">
        <ele>1145.958</ele>
        <time>2009-05-09T12:30:03Z</time>
      </trkpt>
      <trkpt lat="43.93131" lon="7.24531">
        <ele>1145.963</ele>
        <time>2009-05-09T12:30:04Z</time>
      </trkpt>
      <trkpt lat="43.93127" lon="7.2453">
        <ele>1143.189</ele>
        <time>2009-05-09T12:30:13Z</time>
      </trkpt>
      <trkpt lat="43.93122" lon="7.24525">
        <ele>1142.644</ele>
        <time>2009-05-09T12:30:18Z</time>
      </trkpt>
      <trkpt lat="43.93113" lon="7.24528">
        <ele>1140.873</ele>
        <time>2009-05-09T12:30:22Z</time>
      </trkpt>
      <trkpt lat="43.93088" lon="7.24534">
        <ele>1138.414</ele>
        <time>2009-05-09T12:30:27Z</time>
      </trkpt>
      <trkpt lat="43.93073" lon="7.24532">
        <ele>1135.604</ele>
        <time>2009-05-09T12:30:32Z</time>
      </trkpt>
      <trkpt lat="43.93068" lon="7.24528">
        <ele>1134.217</ele>
        <time>2009-05-09T12:30:36Z</time>
      </trkpt>
      <trkpt lat="43.93061" lon="7.24508">
        <ele>1130.306</ele>
        <time>2009-05-09T12:30:44Z</time>
      </trkpt>
      <trkpt lat="43.93049" lon="7.24499">
        <ele>1126.685</ele>
        <time>2009-05-09T12:30:49Z</time>
      </trkpt>
      <trkpt lat="43.93046" lon="7.24498">
        <ele>1126.126</ele>
        <time>2009-05-09T12:30:50Z</time>
      </trkpt>
      <trkpt lat="43.93029" lon="7.24492">
        <ele>1122.254</ele>
        <time>2009-05-09T12:30:57Z</time>
      </trkpt>
      <trkpt lat="43.93015" lon="7.24504">
        <ele>1119.527</ele>
        <time>2009-05-09T12:31:02Z</time>
      </trkpt>
      <trkpt lat="43.92997" lon="7.24513">
        <ele>1118.177</ele>
        <time>2009-05-09T12:31:08Z</time>
      </trkpt>
      <trkpt lat="43.92988" lon="7.24507">
        <ele>1114.06</ele>
        <time>2009-05-09T12:31:13Z</time>
      </trkpt>
      <trkpt lat="43.92965" lon="7.245">
        <ele>1109.88</ele>
        <time>2009-05-09T12:31:20Z</time>
      </trkpt>
      <trkpt lat="43.9296" lon="7.24498">
        <ele>1109.332</ele>
        <time>2009-05-09T12:31:22Z</time>
      </trkpt>
      <trkpt lat="43.92952" lon="7.24489">
        <ele>1108.6</ele>
        <time>2009-05-09T12:31:25Z</time>
      </trkpt>
      <trkpt lat="43.92934" lon="7.24495">
        <ele>1106.201</ele>
        <time>2009-05-09T12:31:30Z</time>
      </trkpt>
      <trkpt lat="43.9293" lon="7.24498">
        <ele>1107.013</ele>
        <time>2009-05-09T12:31:35Z</time>
      </trkpt>
      <trkpt lat="43.92925" lon="7.24503">
        <ele>1106.469</ele>
        <time>2009-05-09T12:34:23Z</time>
      </trkpt>
      <trkpt lat="43.92918" lon="7.24505">
        <ele>1106.423</ele>
        <time>2009-05-09T12:34:29Z</time>
      </trkpt>
      <trkpt lat="43.92899" lon="7.24502">
        <ele>1105.724</ele>
        <time>2009-05-09T12:34:37Z</time>
      </trkpt>
      <trkpt lat="43.92896" lon="7.24501">
        <ele>1105.556</ele>
        <time>2009-05-09T12:34:39Z</time>
      </trkpt>
      <trkpt lat="43.92887" lon="7.24515">
        <ele>1103.664</ele>
        <time>2009-05-09T12:34:44Z</time>
      </trkpt>
      <trkpt lat="43.92869" lon="7.24522">
        <ele>1103.233</ele>
        <time>2009-05-09T12:34:50Z</time>
      </trkpt>
      <trkpt lat="43.92858" lon="7.24533">
        <ele>1101.313</ele>
        <time>2009-05-09T12:34:55Z</time>
      </trkpt>
      <trkpt lat="43.9285" lon="7.24538">
        <ele>1097.362</ele>
        <time>2009-05-09T12:35:01Z</time>
      </trkpt>
      <trkpt lat="43.92847" lon="7.24536">
        <ele>1095.597</ele>
        <time>2009-05-09T12:35:10Z</time>
      </trkpt>
      <trkpt lat="43.92844" lon="7.2453">
        <ele>1096.082</ele>
        <time>2009-05-09T12:35:15Z</time>
      </trkpt>
      <trkpt lat="43.92841" lon="7.24521">
        <ele>1095.487</ele>
        <time>2009-05-09T12:35:23Z</time>
      </trkpt>
      <trkpt lat="43.92837" lon="7.24515">
        <ele>1095.025</ele>
        <time>2009-05-09T12:35:28Z</time>
      </trkpt>
      <trkpt lat="43.92808" lon="7.24524">
        <ele>1091.701</ele>
        <time>2009-05-09T12:35:35Z</time>
      </trkpt>
      <trkpt lat="43.92804" lon="7.24526">
        <ele>1091.977</ele>
        <time>2009-05-09T12:35:38Z</time>
      </trkpt>
      <trkpt lat="43.92793" lon="7.24531">
        <ele>1091.662</ele>
        <time>2009-05-09T12:36:08Z</time>
      </trkpt>
      <trkpt lat="43.92777" lon="7.24534">
        <ele>1087.979</ele>
        <time>2009-05-09T12:36:15Z</time>
      </trkpt>
      <trkpt lat="43.92762" lon="7.24535">
        <ele>1085.354</ele>
        <time>2009-05-09T12:36:21Z</time>
      </trkpt>
      <trkpt lat="43.92757" lon="7.24538">
        <ele>1084.128</ele>
        <time>2009-05-09T12:36:24Z</time>
      </trkpt>
      <trkpt lat="43.92755" lon="7.24542">
        <ele>1082.642</ele>
        <time>2009-05-09T12:36:31Z</time>
      </trkpt>
      <trkpt lat="43.92751" lon="7.24538">
        <ele>1081.728</ele>
        <time>2009-05-09T12:36:38Z</time>
      </trkpt>
      <trkpt lat="43.92748" lon="7.24521">
        <ele>1081.238</ele>
        <time>2009-05-09T12:36:44Z</time>
      </trkpt>
      <trkpt lat="43.92738" lon="7.24504">
        <ele>1080.064</ele>
        <time>2009-05-09T12:36:50Z</time>
      </trkpt>
      <trkpt lat="43.92726" lon="7.24475">
        <ele>1079.253</ele>
        <time>2009-05-09T12:36:58Z</time>
      </trkpt>
      <trkpt lat="43.92725" lon="7.24471">
        <ele>1078.707</ele>
        <time>2009-05-09T12:37:02Z</time>
      </trkpt>
      <trkpt lat="43.92722" lon="7.24467">
        <ele>1079.477</ele>
        <time>2009-05-09T12:37:07Z</time>
      </trkpt>
      <trkpt lat="43.92721" lon="7.24466">
        <ele>1079.807</ele>
        <time>2009-05-09T12:37:09Z</time>
      </trkpt>
      <trkpt lat="43.92713" lon="7.24465">
        <ele>1078.133</ele>
        <time>2009-05-09T12:37:16Z</time>
      </trkpt>
      <trkpt lat="43.92704" lon="7.24463">
        <ele>1077.676</ele>
        <time>2009-05-09T12:37:23Z</time>
      </trkpt>
      <trkpt lat="43.92695" lon="7.24461">
        <ele>1077.862</ele>
        <time>2009-05-09T12:37:32Z</time>
      </trkpt>
      <trkpt lat="43.92688" lon="7.24459">
        <ele>1080.686</ele>
        <time>2009-05-09T12:37:40Z</time>
      </trkpt>
      <trkpt lat="43.92684" lon="7.24461">
        <ele>1083.334</ele>
        <time>2009-05-09T12:37:50Z</time>
      </trkpt>
      <trkpt lat="43.92684" lon="7.24456">
        <ele>1083.568</ele>
        <time>2009-05-09T12:37:58Z</time>
      </trkpt>
      <trkpt lat="43.92683" lon="7.24455">
        <ele>1083.314</ele>
        <time>2009-05-09T12:37:59Z</time>
      </trkpt>
      <trkpt lat="43.92675" lon="7.24443">
        <ele>1081.543</ele>
        <time>2009-05-09T12:38:05Z</time>
      </trkpt>
      <trkpt lat="43.9266" lon="7.24448">
        <ele>1079.551</ele>
        <time>2009-05-09T12:38:09Z</time>
      </trkpt>
      <trkpt lat="43.92646" lon="7.24453">
        <ele>1078.605</ele>
        <time>2009-05-09T12:38:12Z</time>
      </trkpt>
      <trkpt lat="43.92629" lon="7.24459">
        <ele>1079.25</ele>
        <time>2009-05-09T12:38:17Z</time>
      </trkpt>
      <trkpt lat="43.92606" lon="7.24473">
        <ele>1080.673</ele>
        <time>2009-05-09T12:38:25Z</time>
      </trkpt>
      <trkpt lat="43.92604" lon="7.24464">
        <ele>1074.671</ele>
        <time>2009-05-09T12:38:31Z</time>
      </trkpt>
      <trkpt lat="43.92603" lon="7.24462">
        <ele>1073.063</ele>
        <time>2009-05-09T12:38:33Z</time>
      </trkpt>
      <trkpt lat="43.92602" lon="7.24456">
        <ele>1068.666</ele>
        <time>2009-05-09T12:38:42Z</time>
      </trkpt>
      <trkpt lat="43.92603" lon="7.24455">
        <ele>1068.11</ele>
        <time>2009-05-09T12:38:45Z</time>
      </trkpt>
      <trkpt lat="43.92595" lon="7.24446">
        <ele>1066.174</ele>
        <time>2009-05-09T12:38:50Z</time>
      </trkpt>
      <trkpt lat="43.92589" lon="7.24424">
        <ele>1061.294</ele>
        <time>2009-05-09T12:38:56Z</time>
      </trkpt>
      <trkpt lat="43.9258" lon="7.24405">
        <ele>1056.598</ele>
        <time>2009-05-09T12:39:02Z</time>
      </trkpt>
      <trkpt lat="43.92578" lon="7.24402">
        <ele>1055.155</ele>
        <time>2009-05-09T12:39:04Z</time>
      </trkpt>
      <trkpt lat="43.92571" lon="7.24402">
        <ele>1053.266</ele>
        <time>2009-05-09T12:39:07Z</time>
      </trkpt>
      <trkpt lat="43.92549" lon="7.24409">
        <ele>1046.26</ele>
        <time>2009-05-09T12:39:15Z</time>
      </trkpt>
      <trkpt lat="43.92532" lon="7.24412">
        <ele>1042.333</ele>
        <time>2009-05-09T12:39:21Z</time>
      </trkpt>
      <trkpt lat="43.92534" lon="7.24416">
        <ele>1041.153</ele>
        <time>2009-05-09T12:40:37Z</time>
      </trkpt>
      <trkpt lat="43.92544" lon="7.2443">
        <ele>1039.225</ele>
        <time>2009-05-09T12:40:43Z</time>
      </trkpt>
      <trkpt lat="43.92544" lon="7.24435">
        <ele>1038.871</ele>
        <time>2009-05-09T12:40:45Z</time>
      </trkpt>
      <trkpt lat="43.92533" lon="7.24438">
        <ele>1035.715</ele>
        <time>2009-05-09T12:40:53Z</time>
      </trkpt>
      <trkpt lat="43.92511" lon="7.24451">
        <ele>1027.877</ele>
        <time>2009-05-09T12:40:59Z</time>
      </trkpt>
      <trkpt lat="43.92484" lon="7.24471">
        <ele>1019.938</ele>
        <time>2009-05-09T12:41:06Z</time>
      </trkpt>
      <trkpt lat="43.9248" lon="7.24477">
        <ele>1018.77</ele>
        <time>2009-05-09T12:41:11Z</time>
      </trkpt>
      <trkpt lat="43.92482" lon="7.24477">
        <ele>1017.62</ele>
        <time>2009-05-09T12:42:07Z</time>
      </trkpt>
      <trkpt lat="43.92487" lon="7.2448">
        <ele>1016.879</ele>
        <time>2009-05-09T12:42:13Z</time>
      </trkpt>
      <trkpt lat="43.92483" lon="7.24489">
        <ele>1014.095</ele>
        <time>2009-05-09T12:42:21Z</time>
      </trkpt>
      <trkpt lat="43.9248" lon="7.24492">
        <ele>1013.25</ele>
        <time>2009-05-09T12:42:25Z</time>
      </trkpt>
      <trkpt lat="43.92475" lon="7.24498">
        <ele>1010.813</ele>
        <time>2009-05-09T12:42:34Z</time>
      </trkpt>
      <trkpt lat="43.92467" lon="7.24504">
        <ele>1009.1</ele>
        <time>2009-05-09T12:42:44Z</time>
      </trkpt>
      <trkpt lat="43.92454" lon="7.2451">
        <ele>1003.773</ele>
        <time>2009-05-09T12:42:50Z</time>
      </trkpt>
      <trkpt lat="43.92449" lon="7.24514">
        <ele>1002.24</ele>
        <time>2009-05-09T12:42:52Z</time>
      </trkpt>
      <trkpt lat="43.92447" lon="7.24519">
        <ele>1001.152</ele>
        <time>2009-05-09T12:43:00Z</time>
      </trkpt>
      <trkpt lat="43.92449" lon="7.24519">
        <ele>1000.214</ele>
        <time>2009-05-09T12:43:14Z</time>
      </trkpt>
      <trkpt lat="43.92453" lon="7.24522">
        <ele>999.815</ele>
        <time>2009-05-09T12:43:16Z</time>
      </trkpt>
      <trkpt lat="43.92444" lon="7.24533">
        <ele>996.49</ele>
        <time>2009-05-09T12:43:22Z</time>
      </trkpt>
      <trkpt lat="43.9244" lon="7.24544">
        <ele>993.28</ele>
        <time>2009-05-09T12:43:26Z</time>
      </trkpt>
      <trkpt lat="43.92433" lon="7.2456">
        <ele>988.6</ele>
        <time>2009-05-09T12:43:30Z</time>
      </trkpt>
      <trkpt lat="43.92414" lon="7.24583">
        <ele>979.396</ele>
        <time>2009-05-09T12:43:37Z</time>
      </trkpt>
      <trkpt lat="43.92406" lon="7.24576">
        <ele>976.766</ele>
        <time>2009-05-09T12:43:41Z</time>
      </trkpt>
      <trkpt lat="43.92397" lon="7.24565">
        <ele>975.929</ele>
        <time>2009-05-09T12:43:47Z</time>
      </trkpt>
      <trkpt lat="43.92383" lon="7.24564">
        <ele>976.094</ele>
        <time>2009-05-09T12:43:56Z</time>
      </trkpt>
      <trkpt lat="43.92379" lon="7.24564">
        <ele>976.099</ele>
        <time>2009-05-09T12:43:58Z</time>
      </trkpt>
      <trkpt lat="43.92373" lon="7.24554">
        <ele>976.441</ele>
        <time>2009-05-09T12:44:05Z</time>
      </trkpt>
      <trkpt lat="43.92371" lon="7.24551">
        <ele>976.267</ele>
        <time>2009-05-09T12:44:11Z</time>
      </trkpt>
      <trkpt lat="43.92366" lon="7.24541">
        <ele>977.065</ele>
        <time>2009-05-09T12:45:29Z</time>
      </trkpt>
      <trkpt lat="43.9236" lon="7.24529">
        <ele>973.971</ele>
        <time>2009-05-09T12:45:33Z</time>
      </trkpt>
      <trkpt lat="43.92353" lon="7.2451">
        <ele>968.725</ele>
        <time>2009-05-09T12:45:40Z</time>
      </trkpt>
      <trkpt lat="43.92351" lon="7.24503">
        <ele>967.614</ele>
        <time>2009-05-09T12:45:46Z</time>
      </trkpt>
      <trkpt lat="43.9235" lon="7.24503">
        <ele>967.301</ele>
        <time>2009-05-09T12:45:53Z</time>
      </trkpt>
      <trkpt lat="43.92349" lon="7.24504">
        <ele>966.219</ele>
        <time>2009-05-09T12:46:08Z</time>
      </trkpt>
      <trkpt lat="43.92346" lon="7.24502">
        <ele>965.397</ele>
        <time>2009-05-09T12:46:24Z</time>
      </trkpt>
      <trkpt lat="43.92341" lon="7.24494">
        <ele>964.273</ele>
        <time>2009-05-09T12:46:28Z</time>
      </trkpt>
      <trkpt lat="43.92335" lon="7.24486">
        <ele>962.945</ele>
        <time>2009-05-09T12:46:33Z</time>
      </trkpt>
      <trkpt lat="43.92333" lon="7.24492">
        <ele>959.825</ele>
        <time>2009-05-09T12:46:39Z</time>
      </trkpt>
      <trkpt lat="43.92334" lon="7.24493">
        <ele>957.669</ele>
        <time>2009-05-09T12:46:51Z</time>
      </trkpt>
      <trkpt lat="43.92333" lon="7.24491">
        <ele>956.825</ele>
        <time>2009-05-09T12:46:54Z</time>
      </trkpt>
      <trkpt lat="43.9233" lon="7.24484">
        <ele>956.057</ele>
        <time>2009-05-09T12:47:01Z</time>
      </trkpt>
      <trkpt lat="43.92325" lon="7.2448">
        <ele>953.971</ele>
        <time>2009-05-09T12:47:38Z</time>
      </trkpt>
      <trkpt lat="43.92323" lon="7.24478">
        <ele>952.383</ele>
        <time>2009-05-09T12:47:46Z</time>
      </trkpt>
      <trkpt lat="43.9232" lon="7.24473">
        <ele>950.853</ele>
        <time>2009-05-09T12:47:56Z</time>
      </trkpt>
      <trkpt lat="43.92319" lon="7.24471">
        <ele>949.96</ele>
        <time>2009-05-09T12:48:04Z</time>
      </trkpt>
      <trkpt lat="43.92315" lon="7.24469">
        <ele>948.678</ele>
        <time>2009-05-09T12:48:14Z</time>
      </trkpt>
      <trkpt lat="43.92314" lon="7.24464">
        <ele>948.677</ele>
        <time>2009-05-09T12:48:21Z</time>
      </trkpt>
      <trkpt lat="43.92314" lon="7.24463">
        <ele>948.693</ele>
        <time>2009-05-09T12:48:26Z</time>
      </trkpt>
      <trkpt lat="43.92313" lon="7.24454">
        <ele>946.119</ele>
        <time>2009-05-09T12:48:35Z</time>
      </trkpt>
      <trkpt lat="43.92312" lon="7.24452">
        <ele>946.198</ele>
        <time>2009-05-09T12:48:36Z</time>
      </trkpt>
      <trkpt lat="43.92309" lon="7.24448">
        <ele>944.198</ele>
        <time>2009-05-09T12:48:44Z</time>
      </trkpt>
      <trkpt lat="43.92308" lon="7.24444">
        <ele>941.729</ele>
        <time>2009-05-09T12:48:51Z</time>
      </trkpt>
      <trkpt lat="43.92308" lon="7.24439">
        <ele>941.934</ele>
        <time>2009-05-09T12:48:55Z</time>
      </trkpt>
      <trkpt lat="43.92309" lon="7.24428">
        <ele>939.69</ele>
        <time>2009-05-09T12:49:04Z</time>
      </trkpt>
      <trkpt lat="43.92311" lon="7.24425">
        <ele>939.726</ele>
        <time>2009-05-09T12:49:07Z</time>
      </trkpt>
      <trkpt lat="43.92314" lon="7.24413">
        <ele>938.355</ele>
        <time>2009-05-09T12:49:16Z</time>
      </trkpt>
      <trkpt lat="43.92314" lon="7.24404">
        <ele>938.082</ele>
        <time>2009-05-09T12:49:24Z</time>
      </trkpt>
      <trkpt lat="43.9231" lon="7.24397">
        <ele>936.259</ele>
        <time>2009-05-09T12:49:32Z</time>
      </trkpt>
      <trkpt lat="43.92308" lon="7.24394">
        <ele>934.836</ele>
        <time>2009-05-09T12:49:36Z</time>
      </trkpt>
      <trkpt lat="43.92305" lon="7.24387">
        <ele>933.522</ele>
        <time>2009-05-09T12:49:43Z</time>
      </trkpt>
      <trkpt lat="43.92296" lon="7.2439">
        <ele>934.166</ele>
        <time>2009-05-09T12:49:53Z</time>
      </trkpt>
      <trkpt lat="43.92293" lon="7.2439">
        <ele>933.474</ele>
        <time>2009-05-09T12:50:00Z</time>
      </trkpt>
      <trkpt lat="43.92289" lon="7.24391">
        <ele>930.534</ele>
        <time>2009-05-09T12:50:07Z</time>
      </trkpt>
      <trkpt lat="43.92285" lon="7.2439">
        <ele>928.336</ele>
        <time>2009-05-09T12:50:15Z</time>
      </trkpt>
      <trkpt lat="43.92281" lon="7.24387">
        <ele>927.187</ele>
        <time>2009-05-09T12:50:23Z</time>
      </trkpt>
      <trkpt lat="43.92276" lon="7.24381">
        <ele>925.08</ele>
        <time>2009-05-09T12:50:33Z</time>
      </trkpt>
      <trkpt lat="43.92271" lon="7.24379">
        <ele>923.29</ele>
        <time>2009-05-09T12:50:40Z</time>
      </trkpt>
      <trkpt lat="43.92271" lon="7.2438">
        <ele>922.989</ele>
        <time>2009-05-09T12:50:41Z</time>
      </trkpt>
      <trkpt lat="43.9227" lon="7.24384">
        <ele>923.164</ele>
        <time>2009-05-09T12:50:47Z</time>
      </trkpt>
      <trkpt lat="43.9227" lon="7.24386">
        <ele>922.356</ele>
        <time>2009-05-09T12:50:54Z</time>
      </trkpt>
      <trkpt lat="43.9227" lon="7.24384">
        <ele>921.995</ele>
        <time>2009-05-09T12:50:59Z</time>
      </trkpt>
      <trkpt lat="43.92264" lon="7.24384">
        <ele>920.849</ele>
        <time>2009-05-09T12:51:06Z</time>
      </trkpt>
      <trkpt lat="43.9226" lon="7.24381">
        <ele>919.404</ele>
        <time>2009-05-09T12:51:40Z</time>
      </trkpt>
      <trkpt lat="43.92257" lon="7.24381">
        <ele>919.687</ele>
        <time>2009-05-09T12:51:42Z</time>
      </trkpt>
      <trkpt lat="43.92253" lon="7.24369">
        <ele>919.189</ele>
        <time>2009-05-09T12:51:52Z</time>
      </trkpt>
      <trkpt lat="43.92248" lon="7.24366">
        <ele>918.369</ele>
        <time>2009-05-09T12:51:59Z</time>
      </trkpt>
      <trkpt lat="43.9224" lon="7.24366">
        <ele>918.681</ele>
        <time>2009-05-09T12:52:10Z</time>
      </trkpt>
      <trkpt lat="43.92234" lon="7.24368">
        <ele>918.616</ele>
        <time>2009-05-09T12:52:15Z</time>
      </trkpt>
      <trkpt lat="43.92227" lon="7.24373">
        <ele>918.424</ele>
        <time>2009-05-09T12:52:20Z</time>
      </trkpt>
      <trkpt lat="43.92218" lon="7.24372">
        <ele>914.024</ele>
        <time>2009-05-09T12:52:29Z</time>
      </trkpt>
      <trkpt lat="43.92216" lon="7.2437">
        <ele>912.89</ele>
        <time>2009-05-09T12:52:32Z</time>
      </trkpt>
      <trkpt lat="43.92215" lon="7.24367">
        <ele>911.96</ele>
        <time>2009-05-09T12:52:40Z</time>
      </trkpt>
      <trkpt lat="43.92215" lon="7.24366">
        <ele>912.003</ele>
        <time>2009-05-09T12:53:13Z</time>
      </trkpt>
      <trkpt lat="43.9221" lon="7.24357">
        <ele>909.661</ele>
        <time>2009-05-09T12:53:21Z</time>
      </trkpt>
      <trkpt lat="43.92209" lon="7.2435">
        <ele>908.502</ele>
        <time>2009-05-09T12:53:28Z</time>
      </trkpt>
      <trkpt lat="43.92206" lon="7.24344">
        <ele>906.421</ele>
        <time>2009-05-09T12:53:36Z</time>
      </trkpt>
      <trkpt lat="43.92199" lon="7.24335">
        <ele>905.53</ele>
        <time>2009-05-09T12:53:45Z</time>
      </trkpt>
      <trkpt lat="43.92194" lon="7.24328">
        <ele>905.202</ele>
        <time>2009-05-09T12:53:53Z</time>
      </trkpt>
      <trkpt lat="43.92189" lon="7.24325">
        <ele>904.403</ele>
        <time>2009-05-09T12:54:00Z</time>
      </trkpt>
      <trkpt lat="43.92182" lon="7.24322">
        <ele>903.399</ele>
        <time>2009-05-09T12:54:10Z</time>
      </trkpt>
      <trkpt lat="43.92174" lon="7.24325">
        <ele>902.373</ele>
        <time>2009-05-09T12:54:20Z</time>
      </trkpt>
      <trkpt lat="43.92169" lon="7.2433">
        <ele>902.239</ele>
        <time>2009-05-09T12:54:28Z</time>
      </trkpt>
      <trkpt lat="43.92162" lon="7.24336">
        <ele>902.197</ele>
        <time>2009-05-09T12:54:36Z</time>
      </trkpt>
      <trkpt lat="43.92159" lon="7.24339">
        <ele>902.034</ele>
        <time>2009-05-09T12:54:45Z</time>
      </trkpt>
      <trkpt lat="43.92154" lon="7.24344">
        <ele>901.434</ele>
        <time>2009-05-09T12:54:51Z</time>
      </trkpt>
      <trkpt lat="43.92148" lon="7.2435">
        <ele>900.721</ele>
        <time>2009-05-09T12:54:58Z</time>
      </trkpt>
      <trkpt lat="43.9214" lon="7.24356">
        <ele>898.836</ele>
        <time>2009-05-09T12:55:06Z</time>
      </trkpt>
      <trkpt lat="43.92133" lon="7.24366">
        <ele>895.436</ele>
        <time>2009-05-09T12:55:14Z</time>
      </trkpt>
      <trkpt lat="43.9213" lon="7.24373">
        <ele>892.86</ele>
        <time>2009-05-09T12:55:22Z</time>
      </trkpt>
      <trkpt lat="43.92126" lon="7.24376">
        <ele>889.143</ele>
        <time>2009-05-09T12:55:30Z</time>
      </trkpt>
      <trkpt lat="43.92119" lon="7.24377">
        <ele>886.233</ele>
        <time>2009-05-09T12:55:40Z</time>
      </trkpt>
      <trkpt lat="43.92116" lon="7.24375">
        <ele>885.288</ele>
        <time>2009-05-09T12:55:47Z</time>
      </trkpt>
      <trkpt lat="43.92112" lon="7.24374">
        <ele>884.017</ele>
        <time>2009-05-09T12:55:54Z</time>
      </trkpt>
      <trkpt lat="43.9211" lon="7.24374">
        <ele>884.096</ele>
        <time>2009-05-09T12:55:56Z</time>
      </trkpt>
      <trkpt lat="43.92103" lon="7.24373">
        <ele>882.877</ele>
        <time>2009-05-09T12:56:03Z</time>
      </trkpt>
      <trkpt lat="43.92101" lon="7.24378">
        <ele>880.516</ele>
        <time>2009-05-09T12:56:11Z</time>
      </trkpt>
      <trkpt lat="43.921" lon="7.24376">
        <ele>876.626</ele>
        <time>2009-05-09T12:56:18Z</time>
      </trkpt>
      <trkpt lat="43.92094" lon="7.24374">
        <ele>873.895</ele>
        <time>2009-05-09T12:56:27Z</time>
      </trkpt>
      <trkpt lat="43.92091" lon="7.24374">
        <ele>873.221</ele>
        <time>2009-05-09T12:56:35Z</time>
      </trkpt>
      <trkpt lat="43.92082" lon="7.24371">
        <ele>870.631</ele>
        <time>2009-05-09T12:56:45Z</time>
      </trkpt>
      <trkpt lat="43.9208" lon="7.24368">
        <ele>869.957</ele>
        <time>2009-05-09T12:56:50Z</time>
      </trkpt>
      <trkpt lat="43.92078" lon="7.24366">
        <ele>869.838</ele>
        <time>2009-05-09T12:56:52Z</time>
      </trkpt>
      <trkpt lat="43.92074" lon="7.24363">
        <ele>867.458</ele>
        <time>2009-05-09T12:56:59Z</time>
      </trkpt>
      <trkpt lat="43.92071" lon="7.24362">
        <ele>863.825</ele>
        <time>2009-05-09T12:57:07Z</time>
      </trkpt>
      <trkpt lat="43.92069" lon="7.24366">
        <ele>862.726</ele>
        <time>2009-05-09T12:57:14Z</time>
      </trkpt>
      <trkpt lat="43.92066" lon="7.24366">
        <ele>861.161</ele>
        <time>2009-05-09T12:57:21Z</time>
      </trkpt>
      <trkpt lat="43.92065" lon="7.24363">
        <ele>860.297</ele>
        <time>2009-05-09T12:57:29Z</time>
      </trkpt>
      <trkpt lat="43.92063" lon="7.24361">
        <ele>859.519</ele>
        <time>2009-05-09T12:57:33Z</time>
      </trkpt>
      <trkpt lat="43.92059" lon="7.24354">
        <ele>858.031</ele>
        <time>2009-05-09T12:57:39Z</time>
      </trkpt>
      <trkpt lat="43.92056" lon="7.24352">
        <ele>856.525</ele>
        <time>2009-05-09T12:57:46Z</time>
      </trkpt>
      <trkpt lat="43.92055" lon="7.24352">
        <ele>855.703</ele>
        <time>2009-05-09T12:57:53Z</time>
      </trkpt>
      <trkpt lat="43.92054" lon="7.24354">
        <ele>855.913</ele>
        <time>2009-05-09T12:58:05Z</time>
      </trkpt>
      <trkpt lat="43.92057" lon="7.2436">
        <ele>855.078</ele>
        <time>2009-05-09T12:59:25Z</time>
      </trkpt>
      <trkpt lat="43.92057" lon="7.24362">
        <ele>855.009</ele>
        <time>2009-05-09T12:59:33Z</time>
      </trkpt>
      <trkpt lat="43.92053" lon="7.24368">
        <ele>853.508</ele>
        <time>2009-05-09T12:59:41Z</time>
      </trkpt>
      <trkpt lat="43.92052" lon="7.24373">
        <ele>853.401</ele>
        <time>2009-05-09T12:59:48Z</time>
      </trkpt>
      <trkpt lat="43.92045" lon="7.24384">
        <ele>852.261</ele>
        <time>2009-05-09T12:59:58Z</time>
      </trkpt>
      <trkpt lat="43.92042" lon="7.24391">
        <ele>851.1</ele>
        <time>2009-05-09T13:00:05Z</time>
      </trkpt>
      <trkpt lat="43.92037" lon="7.24397">
        <ele>849.892</ele>
        <time>2009-05-09T13:00:13Z</time>
      </trkpt>
      <trkpt lat="43.92033" lon="7.24405">
        <ele>848.61</ele>
        <time>2009-05-09T13:00:20Z</time>
      </trkpt>
      <trkpt lat="43.9203" lon="7.2441">
        <ele>846.191</ele>
        <time>2009-05-09T13:00:26Z</time>
      </trkpt>
      <trkpt lat="43.9203" lon="7.24414">
        <ele>844.887</ele>
        <time>2009-05-09T13:00:30Z</time>
      </trkpt>
      <trkpt lat="43.92027" lon="7.2442">
        <ele>843.299</ele>
        <time>2009-05-09T13:00:37Z</time>
      </trkpt>
      <trkpt lat="43.92021" lon="7.2443">
        <ele>843.595</ele>
        <time>2009-05-09T13:00:42Z</time>
      </trkpt>
      <trkpt lat="43.92015" lon="7.24442">
        <ele>841.377</ele>
        <time>2009-05-09T13:00:50Z</time>
      </trkpt>
      <trkpt lat="43.92011" lon="7.24448">
        <ele>840.85</ele>
        <time>2009-05-09T13:00:57Z</time>
      </trkpt>
      <trkpt lat="43.92006" lon="7.24455">
        <ele>840.647</ele>
        <time>2009-05-09T13:01:05Z</time>
      </trkpt>
      <trkpt lat="43.91997" lon="7.24464">
        <ele>838.424</ele>
        <time>2009-05-09T13:01:15Z</time>
      </trkpt>
      <trkpt lat="43.91989" lon="7.2447">
        <ele>837.228</ele>
        <time>2009-05-09T13:01:24Z</time>
      </trkpt>
      <trkpt lat="43.91982" lon="7.24472">
        <ele>836.722</ele>
        <time>2009-05-09T13:01:31Z</time>
      </trkpt>
      <trkpt lat="43.91979" lon="7.24474">
        <ele>834.977</ele>
        <time>2009-05-09T13:01:36Z</time>
      </trkpt>
      <trkpt lat="43.91977" lon="7.24476">
        <ele>834.545</ele>
        <time>2009-05-09T13:01:38Z</time>
      </trkpt>
      <trkpt lat="43.91968" lon="7.24481">
        <ele>832.002</ele>
        <time>2009-05-09T13:01:47Z</time>
      </trkpt>
      <trkpt lat="43.91967" lon="7.24481">
        <ele>831.12</ele>
        <time>2009-05-09T13:01:56Z</time>
      </trkpt>
      <trkpt lat="43.91966" lon="7.2448">
        <ele>831.076</ele>
        <time>2009-05-09T13:02:02Z</time>
      </trkpt>
      <trkpt lat="43.9196" lon="7.2448">
        <ele>830.633</ele>
        <time>2009-05-09T13:02:07Z</time>
      </trkpt>
      <trkpt lat="43.91947" lon="7.24486">
        <ele>830.11</ele>
        <time>2009-05-09T13:02:17Z</time>
      </trkpt>
      <trkpt lat="43.91945" lon="7.24487">
        <ele>830.075</ele>
        <time>2009-05-09T13:02:25Z</time>
      </trkpt>
      <trkpt lat="43.91942" lon="7.24495">
        <ele>828.833</ele>
        <time>2009-05-09T13:02:42Z</time>
      </trkpt>
      <trkpt lat="43.91938" lon="7.24501">
        <ele>827.575</ele>
        <time>2009-05-09T13:02:49Z</time>
      </trkpt>
      <trkpt lat="43.91929" lon="7.24512">
        <ele>825.179</ele>
        <time>2009-05-09T13:02:59Z</time>
      </trkpt>
      <trkpt lat="43.9192" lon="7.24519">
        <ele>822.005</ele>
        <time>2009-05-09T13:03:09Z</time>
      </trkpt>
      <trkpt lat="43.9191" lon="7.24522">
        <ele>819.646</ele>
        <time>2009-05-09T13:03:19Z</time>
      </trkpt>
      <trkpt lat="43.91906" lon="7.24523">
        <ele>817.926</ele>
        <time>2009-05-09T13:03:26Z</time>
      </trkpt>
      <trkpt lat="43.91897" lon="7.24527">
        <ele>815.537</ele>
        <time>2009-05-09T13:03:34Z</time>
      </trkpt>
      <trkpt lat="43.91887" lon="7.24529">
        <ele>813.963</ele>
        <time>2009-05-09T13:03:44Z</time>
      </trkpt>
      <trkpt lat="43.91883" lon="7.24534">
        <ele>811.902</ele>
        <time>2009-05-09T13:03:52Z</time>
      </trkpt>
      <trkpt lat="43.91877" lon="7.24544">
        <ele>810.864</ele>
        <time>2009-05-09T13:03:57Z</time>
      </trkpt>
      <trkpt lat="43.91874" lon="7.24548">
        <ele>810.624</ele>
        <time>2009-05-09T13:03:58Z</time>
      </trkpt>
      <trkpt lat="43.91851" lon="7.24592">
        <ele>808.101</ele>
        <time>2009-05-09T13:04:05Z</time>
      </trkpt>
      <trkpt lat="43.91829" lon="7.24634">
        <ele>806.445</ele>
        <time>2009-05-09T13:04:10Z</time>
      </trkpt>
      <trkpt lat="43.91825" lon="7.24643">
        <ele>806.248</ele>
        <time>2009-05-09T13:04:11Z</time>
      </trkpt>
      <trkpt lat="43.91799" lon="7.24691">
        <ele>803.933</ele>
        <time>2009-05-09T13:04:17Z</time>
      </trkpt>
      <trkpt lat="43.91766" lon="7.24749">
        <ele>800.988</ele>
        <time>2009-05-09T13:04:25Z</time>
      </trkpt>
      <trkpt lat="43.91756" lon="7.2477">
        <ele>799.752</ele>
        <time>2009-05-09T13:04:28Z</time>
      </trkpt>
      <trkpt lat="43.91747" lon="7.24785">
        <ele>799.846</ele>
        <time>2009-05-09T13:04:30Z</time>
      </trkpt>
      <trkpt lat="43.91731" lon="7.24804">
        <ele>799.611</ele>
        <time>2009-05-09T13:04:33Z</time>
      </trkpt>
      <trkpt lat="43.91699" lon="7.24821">
        <ele>799.102</ele>
        <time>2009-05-09T13:04:39Z</time>
      </trkpt>
      <trkpt lat="43.91683" lon="7.24832">
        <ele>797.509</ele>
        <time>2009-05-09T13:04:43Z</time>
      </trkpt>
      <trkpt lat="43.91677" lon="7.24841">
        <ele>797.73</ele>
        <time>2009-05-09T13:04:45Z</time>
      </trkpt>
      <trkpt lat="43.91652" lon="7.24863">
        <ele>794.877</ele>
        <time>2009-05-09T13:04:51Z</time>
      </trkpt>
      <trkpt lat="43.91622" lon="7.24871">
        <ele>791.014</ele>
        <time>2009-05-09T13:04:56Z</time>
      </trkpt>
      <trkpt lat="43.91596" lon="7.24883">
        <ele>787.693</ele>
        <time>2009-05-09T13:05:01Z</time>
      </trkpt>
      <trkpt lat="43.91595" lon="7.24884">
        <ele>788.835</ele>
        <time>2009-05-09T13:05:05Z</time>
      </trkpt>
      <trkpt lat="43.91596" lon="7.24885">
        <ele>788.203</ele>
        <time>2009-05-09T13:05:34Z</time>
      </trkpt>
    </trkseg>
  </trk>
</gpx>